<?xml version="1.0" encoding="UTF-8" standalone="no" ?>
<gpx xmlns="http://www.topografix.com/GPX/1/1" xmlns:xsi="http://www.w3.org/2001/XMLSchema-instance" xsi:schemaLocation="http://www.topografix.com/GPX/1/1 http://www.topografix.com/GPX/1/1/gpx.xsd" version="1.1" creator="VisuGPX - https://www.visugpx.com">
  <metadata>
    <name>Lac de Monteynard - Villard de Touage</name>
    <desc><![CDATA[passage à la passerelle himalayenne de l\'Ebron]]></desc>
  </metadata>
  <trk>
    <name><![CDATA[ACTIVE LOG083255]]></name>
    <trkseg>
      <trkpt lat="44.90532" lon="5.67196">
        <ele>482.213</ele>
        <time>2013-08-31T08:32:54Z</time>
      </trkpt>
      <trkpt lat="44.90534" lon="5.6719">
        <ele>483.055</ele>
        <time>2013-08-31T08:35:24Z</time>
      </trkpt>
      <trkpt lat="44.90538" lon="5.67186">
        <ele>482.756</ele>
        <time>2013-08-31T08:35:29Z</time>
      </trkpt>
      <trkpt lat="44.90543" lon="5.67185">
        <ele>482.681</ele>
        <time>2013-08-31T08:35:33Z</time>
      </trkpt>
      <trkpt lat="44.9055" lon="5.67181">
        <ele>483.051</ele>
        <time>2013-08-31T08:35:39Z</time>
      </trkpt>
      <trkpt lat="44.9057" lon="5.67177">
        <ele>483.872</ele>
        <time>2013-08-31T08:35:55Z</time>
      </trkpt>
      <trkpt lat="44.90584" lon="5.67173">
        <ele>484.542</ele>
        <time>2013-08-31T08:36:03Z</time>
      </trkpt>
      <trkpt lat="44.90589" lon="5.67171">
        <ele>485.118</ele>
        <time>2013-08-31T08:37:23Z</time>
      </trkpt>
      <trkpt lat="44.90627" lon="5.67154">
        <ele>486.527</ele>
        <time>2013-08-31T08:37:40Z</time>
      </trkpt>
      <trkpt lat="44.90674" lon="5.67162">
        <ele>485.373</ele>
        <time>2013-08-31T08:37:57Z</time>
      </trkpt>
      <trkpt lat="44.90687" lon="5.67169">
        <ele>486.301</ele>
        <time>2013-08-31T08:38:07Z</time>
      </trkpt>
      <trkpt lat="44.90685" lon="5.67163">
        <ele>485.966</ele>
        <time>2013-08-31T08:38:38Z</time>
      </trkpt>
      <trkpt lat="44.90687" lon="5.67168">
        <ele>486.636</ele>
        <time>2013-08-31T08:38:47Z</time>
      </trkpt>
      <trkpt lat="44.90686" lon="5.67164">
        <ele>486.222</ele>
        <time>2013-08-31T08:39:13Z</time>
      </trkpt>
      <trkpt lat="44.90687" lon="5.6717">
        <ele>486.6</ele>
        <time>2013-08-31T08:39:29Z</time>
      </trkpt>
      <trkpt lat="44.90713" lon="5.67152">
        <ele>486.609</ele>
        <time>2013-08-31T08:39:49Z</time>
      </trkpt>
      <trkpt lat="44.90738" lon="5.6713">
        <ele>486.402</ele>
        <time>2013-08-31T08:40:01Z</time>
      </trkpt>
      <trkpt lat="44.9077" lon="5.67095">
        <ele>488.93</ele>
        <time>2013-08-31T08:40:17Z</time>
      </trkpt>
      <trkpt lat="44.90799" lon="5.67077">
        <ele>492.588</ele>
        <time>2013-08-31T08:40:32Z</time>
      </trkpt>
      <trkpt lat="44.90827" lon="5.67051">
        <ele>496.319</ele>
        <time>2013-08-31T08:40:50Z</time>
      </trkpt>
      <trkpt lat="44.90848" lon="5.67012">
        <ele>499.508</ele>
        <time>2013-08-31T08:41:09Z</time>
      </trkpt>
      <trkpt lat="44.90843" lon="5.67002">
        <ele>499.715</ele>
        <time>2013-08-31T08:41:13Z</time>
      </trkpt>
      <trkpt lat="44.9081" lon="5.67006">
        <ele>503.055</ele>
        <time>2013-08-31T08:41:29Z</time>
      </trkpt>
      <trkpt lat="44.9078" lon="5.66994">
        <ele>506.331</ele>
        <time>2013-08-31T08:41:45Z</time>
      </trkpt>
      <trkpt lat="44.90755" lon="5.66982">
        <ele>509.126</ele>
        <time>2013-08-31T08:41:59Z</time>
      </trkpt>
      <trkpt lat="44.9073" lon="5.66968">
        <ele>512.406</ele>
        <time>2013-08-31T08:42:14Z</time>
      </trkpt>
      <trkpt lat="44.90705" lon="5.66952">
        <ele>515.753</ele>
        <time>2013-08-31T08:42:29Z</time>
      </trkpt>
      <trkpt lat="44.90681" lon="5.66934">
        <ele>519.106</ele>
        <time>2013-08-31T08:42:44Z</time>
      </trkpt>
      <trkpt lat="44.90672" lon="5.66929">
        <ele>519.787</ele>
        <time>2013-08-31T08:42:49Z</time>
      </trkpt>
      <trkpt lat="44.90625" lon="5.66933">
        <ele>521.119</ele>
        <time>2013-08-31T08:43:09Z</time>
      </trkpt>
      <trkpt lat="44.90592" lon="5.66959">
        <ele>519.765</ele>
        <time>2013-08-31T08:43:18Z</time>
      </trkpt>
      <trkpt lat="44.90534" lon="5.66977">
        <ele>519.446</ele>
        <time>2013-08-31T08:43:32Z</time>
      </trkpt>
      <trkpt lat="44.90466" lon="5.67006">
        <ele>519.51</ele>
        <time>2013-08-31T08:43:48Z</time>
      </trkpt>
      <trkpt lat="44.9044" lon="5.67016">
        <ele>518.867</ele>
        <time>2013-08-31T08:43:54Z</time>
      </trkpt>
      <trkpt lat="44.90415" lon="5.6702">
        <ele>518.671</ele>
        <time>2013-08-31T08:43:59Z</time>
      </trkpt>
      <trkpt lat="44.90363" lon="5.67041">
        <ele>516.168</ele>
        <time>2013-08-31T08:44:09Z</time>
      </trkpt>
      <trkpt lat="44.90342" lon="5.67059">
        <ele>513.979</ele>
        <time>2013-08-31T08:44:13Z</time>
      </trkpt>
      <trkpt lat="44.90338" lon="5.67064">
        <ele>514.369</ele>
        <time>2013-08-31T08:44:14Z</time>
      </trkpt>
      <trkpt lat="44.90252" lon="5.67108">
        <ele>514.06</ele>
        <time>2013-08-31T08:44:32Z</time>
      </trkpt>
      <trkpt lat="44.9019" lon="5.67112">
        <ele>514.417</ele>
        <time>2013-08-31T08:44:46Z</time>
      </trkpt>
      <trkpt lat="44.90167" lon="5.6712">
        <ele>513.781</ele>
        <time>2013-08-31T08:44:51Z</time>
      </trkpt>
      <trkpt lat="44.90081" lon="5.67163">
        <ele>513.701</ele>
        <time>2013-08-31T08:45:11Z</time>
      </trkpt>
      <trkpt lat="44.90066" lon="5.67168">
        <ele>514.162</ele>
        <time>2013-08-31T08:45:15Z</time>
      </trkpt>
      <trkpt lat="44.90061" lon="5.67165">
        <ele>516.072</ele>
        <time>2013-08-31T08:45:18Z</time>
      </trkpt>
      <trkpt lat="44.90061" lon="5.67159">
        <ele>516.476</ele>
        <time>2013-08-31T08:45:20Z</time>
      </trkpt>
      <trkpt lat="44.90062" lon="5.67153">
        <ele>516.828</ele>
        <time>2013-08-31T08:45:22Z</time>
      </trkpt>
      <trkpt lat="44.90056" lon="5.67126">
        <ele>520.49</ele>
        <time>2013-08-31T08:45:32Z</time>
      </trkpt>
      <trkpt lat="44.90052" lon="5.67115">
        <ele>522.137</ele>
        <time>2013-08-31T08:45:37Z</time>
      </trkpt>
      <trkpt lat="44.90049" lon="5.6709">
        <ele>525.322</ele>
        <time>2013-08-31T08:45:47Z</time>
      </trkpt>
      <trkpt lat="44.90049" lon="5.67087">
        <ele>525.325</ele>
        <time>2013-08-31T08:45:48Z</time>
      </trkpt>
      <trkpt lat="44.90058" lon="5.67058">
        <ele>528.499</ele>
        <time>2013-08-31T08:46:00Z</time>
      </trkpt>
      <trkpt lat="44.90052" lon="5.67046">
        <ele>529.682</ele>
        <time>2013-08-31T08:46:07Z</time>
      </trkpt>
      <trkpt lat="44.90029" lon="5.67049">
        <ele>530.756</ele>
        <time>2013-08-31T08:46:19Z</time>
      </trkpt>
      <trkpt lat="44.8999" lon="5.67067">
        <ele>529.911</ele>
        <time>2013-08-31T08:46:31Z</time>
      </trkpt>
      <trkpt lat="44.8997" lon="5.67078">
        <ele>529.358</ele>
        <time>2013-08-31T08:46:37Z</time>
      </trkpt>
      <trkpt lat="44.89913" lon="5.67106">
        <ele>528.482</ele>
        <time>2013-08-31T08:46:50Z</time>
      </trkpt>
      <trkpt lat="44.8989" lon="5.67117">
        <ele>528.095</ele>
        <time>2013-08-31T08:46:55Z</time>
      </trkpt>
      <trkpt lat="44.89789" lon="5.67164">
        <ele>525.713</ele>
        <time>2013-08-31T08:47:15Z</time>
      </trkpt>
      <trkpt lat="44.89697" lon="5.67204">
        <ele>523.87</ele>
        <time>2013-08-31T08:47:33Z</time>
      </trkpt>
      <trkpt lat="44.89642" lon="5.67229">
        <ele>523.136</ele>
        <time>2013-08-31T08:47:44Z</time>
      </trkpt>
      <trkpt lat="44.89611" lon="5.67218">
        <ele>525.968</ele>
        <time>2013-08-31T08:47:54Z</time>
      </trkpt>
      <trkpt lat="44.89609" lon="5.67216">
        <ele>526.3</ele>
        <time>2013-08-31T08:48:19Z</time>
      </trkpt>
      <trkpt lat="44.89593" lon="5.67206">
        <ele>528.176</ele>
        <time>2013-08-31T08:49:20Z</time>
      </trkpt>
      <trkpt lat="44.89584" lon="5.67203">
        <ele>528.336</ele>
        <time>2013-08-31T08:49:24Z</time>
      </trkpt>
      <trkpt lat="44.89571" lon="5.67209">
        <ele>528.548</ele>
        <time>2013-08-31T08:49:29Z</time>
      </trkpt>
      <trkpt lat="44.8952" lon="5.67244">
        <ele>528.246</ele>
        <time>2013-08-31T08:49:47Z</time>
      </trkpt>
      <trkpt lat="44.89507" lon="5.67239">
        <ele>528.624</ele>
        <time>2013-08-31T08:49:52Z</time>
      </trkpt>
      <trkpt lat="44.89462" lon="5.67256">
        <ele>529.78</ele>
        <time>2013-08-31T08:50:07Z</time>
      </trkpt>
      <trkpt lat="44.89388" lon="5.67275">
        <ele>531.546</ele>
        <time>2013-08-31T08:50:28Z</time>
      </trkpt>
      <trkpt lat="44.89324" lon="5.67295">
        <ele>531.81</ele>
        <time>2013-08-31T08:50:45Z</time>
      </trkpt>
      <trkpt lat="44.89253" lon="5.67302">
        <ele>532.124</ele>
        <time>2013-08-31T08:51:03Z</time>
      </trkpt>
      <trkpt lat="44.89188" lon="5.673">
        <ele>532.026</ele>
        <time>2013-08-31T08:51:20Z</time>
      </trkpt>
      <trkpt lat="44.89112" lon="5.67323">
        <ele>529.438</ele>
        <time>2013-08-31T08:51:37Z</time>
      </trkpt>
      <trkpt lat="44.89083" lon="5.67329">
        <ele>525.387</ele>
        <time>2013-08-31T08:51:41Z</time>
      </trkpt>
      <trkpt lat="44.89075" lon="5.67329">
        <ele>525.391</ele>
        <time>2013-08-31T08:51:42Z</time>
      </trkpt>
      <trkpt lat="44.89044" lon="5.6733">
        <ele>523.347</ele>
        <time>2013-08-31T08:51:46Z</time>
      </trkpt>
      <trkpt lat="44.8895" lon="5.67336">
        <ele>522.503</ele>
        <time>2013-08-31T08:52:01Z</time>
      </trkpt>
      <trkpt lat="44.88944" lon="5.67336">
        <ele>522.169</ele>
        <time>2013-08-31T08:52:02Z</time>
      </trkpt>
      <trkpt lat="44.88933" lon="5.67336">
        <ele>522.015</ele>
        <time>2013-08-31T08:52:04Z</time>
      </trkpt>
      <trkpt lat="44.88914" lon="5.67332">
        <ele>521.297</ele>
        <time>2013-08-31T08:52:07Z</time>
      </trkpt>
      <trkpt lat="44.88897" lon="5.67341">
        <ele>519.375</ele>
        <time>2013-08-31T08:52:10Z</time>
      </trkpt>
      <trkpt lat="44.88891" lon="5.67352">
        <ele>520.454</ele>
        <time>2013-08-31T08:52:12Z</time>
      </trkpt>
      <trkpt lat="44.88884" lon="5.67356">
        <ele>522.084</ele>
        <time>2013-08-31T08:52:14Z</time>
      </trkpt>
      <trkpt lat="44.88876" lon="5.67358">
        <ele>522.607</ele>
        <time>2013-08-31T08:52:16Z</time>
      </trkpt>
      <trkpt lat="44.88792" lon="5.67375">
        <ele>523.607</ele>
        <time>2013-08-31T08:52:35Z</time>
      </trkpt>
      <trkpt lat="44.8871" lon="5.67397">
        <ele>524.071</ele>
        <time>2013-08-31T08:52:54Z</time>
      </trkpt>
      <trkpt lat="44.88675" lon="5.6741">
        <ele>523.764</ele>
        <time>2013-08-31T08:53:02Z</time>
      </trkpt>
      <trkpt lat="44.88567" lon="5.67426">
        <ele>525.78</ele>
        <time>2013-08-31T08:53:25Z</time>
      </trkpt>
      <trkpt lat="44.88538" lon="5.67432">
        <ele>526.407</ele>
        <time>2013-08-31T08:53:32Z</time>
      </trkpt>
      <trkpt lat="44.88523" lon="5.67441">
        <ele>526.678</ele>
        <time>2013-08-31T08:53:36Z</time>
      </trkpt>
      <trkpt lat="44.88516" lon="5.6745">
        <ele>526.499</ele>
        <time>2013-08-31T08:53:38Z</time>
      </trkpt>
      <trkpt lat="44.88473" lon="5.67469">
        <ele>527.299</ele>
        <time>2013-08-31T08:53:48Z</time>
      </trkpt>
      <trkpt lat="44.88377" lon="5.67491">
        <ele>529.552</ele>
        <time>2013-08-31T08:54:10Z</time>
      </trkpt>
      <trkpt lat="44.88341" lon="5.67516">
        <ele>531.146</ele>
        <time>2013-08-31T08:54:20Z</time>
      </trkpt>
      <trkpt lat="44.88279" lon="5.67564">
        <ele>532.945</ele>
        <time>2013-08-31T08:54:38Z</time>
      </trkpt>
      <trkpt lat="44.88249" lon="5.67568">
        <ele>535.687</ele>
        <time>2013-08-31T08:54:50Z</time>
      </trkpt>
      <trkpt lat="44.88215" lon="5.67572">
        <ele>538.807</ele>
        <time>2013-08-31T08:55:05Z</time>
      </trkpt>
      <trkpt lat="44.88183" lon="5.67572">
        <ele>542.4</ele>
        <time>2013-08-31T08:55:21Z</time>
      </trkpt>
      <trkpt lat="44.88158" lon="5.67574">
        <ele>545.619</ele>
        <time>2013-08-31T08:55:35Z</time>
      </trkpt>
      <trkpt lat="44.88133" lon="5.67578">
        <ele>548.527</ele>
        <time>2013-08-31T08:55:50Z</time>
      </trkpt>
      <trkpt lat="44.88114" lon="5.67581">
        <ele>551.636</ele>
        <time>2013-08-31T08:56:02Z</time>
      </trkpt>
      <trkpt lat="44.8807" lon="5.676">
        <ele>552.666</ele>
        <time>2013-08-31T08:56:20Z</time>
      </trkpt>
      <trkpt lat="44.8803" lon="5.67622">
        <ele>554.494</ele>
        <time>2013-08-31T08:56:34Z</time>
      </trkpt>
      <trkpt lat="44.88004" lon="5.67636">
        <ele>556.436</ele>
        <time>2013-08-31T08:56:45Z</time>
      </trkpt>
      <trkpt lat="44.8798" lon="5.67652">
        <ele>554.329</ele>
        <time>2013-08-31T08:56:52Z</time>
      </trkpt>
      <trkpt lat="44.87969" lon="5.6766">
        <ele>552.492</ele>
        <time>2013-08-31T08:56:54Z</time>
      </trkpt>
      <trkpt lat="44.87965" lon="5.67662">
        <ele>552.496</ele>
        <time>2013-08-31T08:56:55Z</time>
      </trkpt>
      <trkpt lat="44.87942" lon="5.67671">
        <ele>551.648</ele>
        <time>2013-08-31T08:56:59Z</time>
      </trkpt>
      <trkpt lat="44.87926" lon="5.67679">
        <ele>550.614</ele>
        <time>2013-08-31T08:57:02Z</time>
      </trkpt>
      <trkpt lat="44.87886" lon="5.67694">
        <ele>553.035</ele>
        <time>2013-08-31T08:57:12Z</time>
      </trkpt>
      <trkpt lat="44.87858" lon="5.67698">
        <ele>553.616</ele>
        <time>2013-08-31T08:57:20Z</time>
      </trkpt>
      <trkpt lat="44.87836" lon="5.67701">
        <ele>551.451</ele>
        <time>2013-08-31T08:57:25Z</time>
      </trkpt>
      <trkpt lat="44.8783" lon="5.67703">
        <ele>550.896</ele>
        <time>2013-08-31T08:57:26Z</time>
      </trkpt>
      <trkpt lat="44.87765" lon="5.6771">
        <ele>551.026</ele>
        <time>2013-08-31T08:57:38Z</time>
      </trkpt>
      <trkpt lat="44.87742" lon="5.67717">
        <ele>551.098</ele>
        <time>2013-08-31T08:57:42Z</time>
      </trkpt>
      <trkpt lat="44.87721" lon="5.67719">
        <ele>551.521</ele>
        <time>2013-08-31T08:57:46Z</time>
      </trkpt>
      <trkpt lat="44.87668" lon="5.67726">
        <ele>551.606</ele>
        <time>2013-08-31T08:57:56Z</time>
      </trkpt>
      <trkpt lat="44.87634" lon="5.67725">
        <ele>552.248</ele>
        <time>2013-08-31T08:58:05Z</time>
      </trkpt>
      <trkpt lat="44.87611" lon="5.67725">
        <ele>553.505</ele>
        <time>2013-08-31T08:58:09Z</time>
      </trkpt>
      <trkpt lat="44.87598" lon="5.67723">
        <ele>553.66</ele>
        <time>2013-08-31T08:58:12Z</time>
      </trkpt>
      <trkpt lat="44.87564" lon="5.67712">
        <ele>555.726</ele>
        <time>2013-08-31T08:58:21Z</time>
      </trkpt>
      <trkpt lat="44.87523" lon="5.67703">
        <ele>555.418</ele>
        <time>2013-08-31T08:58:32Z</time>
      </trkpt>
      <trkpt lat="44.87508" lon="5.67701">
        <ele>555.383</ele>
        <time>2013-08-31T08:58:35Z</time>
      </trkpt>
      <trkpt lat="44.87487" lon="5.67704">
        <ele>555.689</ele>
        <time>2013-08-31T08:58:40Z</time>
      </trkpt>
      <trkpt lat="44.87455" lon="5.67709">
        <ele>555.326</ele>
        <time>2013-08-31T08:58:48Z</time>
      </trkpt>
      <trkpt lat="44.87422" lon="5.67698">
        <ele>553.765</ele>
        <time>2013-08-31T08:58:55Z</time>
      </trkpt>
      <trkpt lat="44.87388" lon="5.67682">
        <ele>552.351</ele>
        <time>2013-08-31T08:59:02Z</time>
      </trkpt>
      <trkpt lat="44.87324" lon="5.67658">
        <ele>551.122</ele>
        <time>2013-08-31T08:59:14Z</time>
      </trkpt>
      <trkpt lat="44.87309" lon="5.67662">
        <ele>549.125</ele>
        <time>2013-08-31T08:59:18Z</time>
      </trkpt>
      <trkpt lat="44.87301" lon="5.67662">
        <ele>547.678</ele>
        <time>2013-08-31T08:59:20Z</time>
      </trkpt>
      <trkpt lat="44.8729" lon="5.67663">
        <ele>544.788</ele>
        <time>2013-08-31T08:59:23Z</time>
      </trkpt>
      <trkpt lat="44.87286" lon="5.67665">
        <ele>543.602</ele>
        <time>2013-08-31T08:59:24Z</time>
      </trkpt>
      <trkpt lat="44.87282" lon="5.67672">
        <ele>542.236</ele>
        <time>2013-08-31T08:59:27Z</time>
      </trkpt>
      <trkpt lat="44.87284" lon="5.67685">
        <ele>540.261</ele>
        <time>2013-08-31T08:59:30Z</time>
      </trkpt>
      <trkpt lat="44.87288" lon="5.67697">
        <ele>538.736</ele>
        <time>2013-08-31T08:59:32Z</time>
      </trkpt>
      <trkpt lat="44.87292" lon="5.67708">
        <ele>537.2</ele>
        <time>2013-08-31T08:59:34Z</time>
      </trkpt>
      <trkpt lat="44.87297" lon="5.67717">
        <ele>534.993</ele>
        <time>2013-08-31T08:59:36Z</time>
      </trkpt>
      <trkpt lat="44.87294" lon="5.67727">
        <ele>534.123</ele>
        <time>2013-08-31T08:59:44Z</time>
      </trkpt>
      <trkpt lat="44.8729" lon="5.67727">
        <ele>533.786</ele>
        <time>2013-08-31T08:59:46Z</time>
      </trkpt>
      <trkpt lat="44.87265" lon="5.67716">
        <ele>529.856</ele>
        <time>2013-08-31T08:59:54Z</time>
      </trkpt>
      <trkpt lat="44.87252" lon="5.6771">
        <ele>528.524</ele>
        <time>2013-08-31T08:59:57Z</time>
      </trkpt>
      <trkpt lat="44.87237" lon="5.67703">
        <ele>525.741</ele>
        <time>2013-08-31T09:00:00Z</time>
      </trkpt>
      <trkpt lat="44.87226" lon="5.67698">
        <ele>524.215</ele>
        <time>2013-08-31T09:00:02Z</time>
      </trkpt>
      <trkpt lat="44.87199" lon="5.67683">
        <ele>522.195</ele>
        <time>2013-08-31T09:00:07Z</time>
      </trkpt>
      <trkpt lat="44.87147" lon="5.67658">
        <ele>525.199</ele>
        <time>2013-08-31T09:00:19Z</time>
      </trkpt>
      <trkpt lat="44.87141" lon="5.67657">
        <ele>526.486</ele>
        <time>2013-08-31T09:00:21Z</time>
      </trkpt>
      <trkpt lat="44.87124" lon="5.6765">
        <ele>529.749</ele>
        <time>2013-08-31T09:00:27Z</time>
      </trkpt>
      <trkpt lat="44.87122" lon="5.67649">
        <ele>529.75</ele>
        <time>2013-08-31T09:00:28Z</time>
      </trkpt>
      <trkpt lat="44.87113" lon="5.67644">
        <ele>531.673</ele>
        <time>2013-08-31T09:00:39Z</time>
      </trkpt>
      <trkpt lat="44.87112" lon="5.67647">
        <ele>531.318</ele>
        <time>2013-08-31T09:01:35Z</time>
      </trkpt>
      <trkpt lat="44.87108" lon="5.67654">
        <ele>532.563</ele>
        <time>2013-08-31T09:01:41Z</time>
      </trkpt>
      <trkpt lat="44.87105" lon="5.67656">
        <ele>532.501</ele>
        <time>2013-08-31T09:01:44Z</time>
      </trkpt>
      <trkpt lat="44.87089" lon="5.67659">
        <ele>535.332</ele>
        <time>2013-08-31T09:02:00Z</time>
      </trkpt>
      <trkpt lat="44.87081" lon="5.67659">
        <ele>537.8</ele>
        <time>2013-08-31T09:02:17Z</time>
      </trkpt>
      <trkpt lat="44.87083" lon="5.67658">
        <ele>538.136</ele>
        <time>2013-08-31T09:02:19Z</time>
      </trkpt>
      <trkpt lat="44.87091" lon="5.67652">
        <ele>541.181</ele>
        <time>2013-08-31T09:02:37Z</time>
      </trkpt>
      <trkpt lat="44.87088" lon="5.67646">
        <ele>543.974</ele>
        <time>2013-08-31T09:02:52Z</time>
      </trkpt>
      <trkpt lat="44.87083" lon="5.67645">
        <ele>546.165</ele>
        <time>2013-08-31T09:03:05Z</time>
      </trkpt>
      <trkpt lat="44.87081" lon="5.67638">
        <ele>548.348</ele>
        <time>2013-08-31T09:03:17Z</time>
      </trkpt>
      <trkpt lat="44.87079" lon="5.67635">
        <ele>548.915</ele>
        <time>2013-08-31T09:03:21Z</time>
      </trkpt>
      <trkpt lat="44.87079" lon="5.67623">
        <ele>550.264</ele>
        <time>2013-08-31T09:03:29Z</time>
      </trkpt>
      <trkpt lat="44.8707" lon="5.67611">
        <ele>552.855</ele>
        <time>2013-08-31T09:03:46Z</time>
      </trkpt>
      <trkpt lat="44.87068" lon="5.67609">
        <ele>552.711</ele>
        <time>2013-08-31T09:03:58Z</time>
      </trkpt>
      <trkpt lat="44.87063" lon="5.676">
        <ele>553.216</ele>
        <time>2013-08-31T09:04:03Z</time>
      </trkpt>
      <trkpt lat="44.87054" lon="5.67597">
        <ele>554.585</ele>
        <time>2013-08-31T09:04:08Z</time>
      </trkpt>
      <trkpt lat="44.87049" lon="5.67594">
        <ele>556.484</ele>
        <time>2013-08-31T09:04:14Z</time>
      </trkpt>
      <trkpt lat="44.8704" lon="5.67581">
        <ele>557.301</ele>
        <time>2013-08-31T09:04:22Z</time>
      </trkpt>
      <trkpt lat="44.87036" lon="5.67573">
        <ele>557.421</ele>
        <time>2013-08-31T09:04:26Z</time>
      </trkpt>
      <trkpt lat="44.87035" lon="5.67566">
        <ele>557.844</ele>
        <time>2013-08-31T09:04:29Z</time>
      </trkpt>
      <trkpt lat="44.87036" lon="5.67554">
        <ele>559.557</ele>
        <time>2013-08-31T09:04:36Z</time>
      </trkpt>
      <trkpt lat="44.87038" lon="5.67537">
        <ele>562.217</ele>
        <time>2013-08-31T09:04:45Z</time>
      </trkpt>
      <trkpt lat="44.87038" lon="5.67531">
        <ele>562.961</ele>
        <time>2013-08-31T09:04:49Z</time>
      </trkpt>
      <trkpt lat="44.87034" lon="5.67528">
        <ele>562.875</ele>
        <time>2013-08-31T09:04:52Z</time>
      </trkpt>
      <trkpt lat="44.87032" lon="5.67518">
        <ele>563.515</ele>
        <time>2013-08-31T09:04:57Z</time>
      </trkpt>
      <trkpt lat="44.8703" lon="5.67514">
        <ele>563.193</ele>
        <time>2013-08-31T09:04:59Z</time>
      </trkpt>
      <trkpt lat="44.87029" lon="5.67503">
        <ele>564.919</ele>
        <time>2013-08-31T09:05:04Z</time>
      </trkpt>
      <trkpt lat="44.87029" lon="5.67493">
        <ele>565.871</ele>
        <time>2013-08-31T09:05:08Z</time>
      </trkpt>
      <trkpt lat="44.87026" lon="5.67487">
        <ele>565.826</ele>
        <time>2013-08-31T09:05:11Z</time>
      </trkpt>
      <trkpt lat="44.87024" lon="5.67481">
        <ele>567.625</ele>
        <time>2013-08-31T09:05:21Z</time>
      </trkpt>
      <trkpt lat="44.87024" lon="5.67475">
        <ele>567.726</ele>
        <time>2013-08-31T09:05:26Z</time>
      </trkpt>
      <trkpt lat="44.87024" lon="5.67468">
        <ele>568.947</ele>
        <time>2013-08-31T09:05:30Z</time>
      </trkpt>
      <trkpt lat="44.87028" lon="5.67459">
        <ele>569.595</ele>
        <time>2013-08-31T09:05:35Z</time>
      </trkpt>
      <trkpt lat="44.87033" lon="5.67444">
        <ele>570.85</ele>
        <time>2013-08-31T09:05:45Z</time>
      </trkpt>
      <trkpt lat="44.87036" lon="5.67442">
        <ele>570.81</ele>
        <time>2013-08-31T09:05:47Z</time>
      </trkpt>
      <trkpt lat="44.87044" lon="5.6743">
        <ele>573.201</ele>
        <time>2013-08-31T09:05:54Z</time>
      </trkpt>
      <trkpt lat="44.87031" lon="5.67417">
        <ele>575.729</ele>
        <time>2013-08-31T09:06:05Z</time>
      </trkpt>
      <trkpt lat="44.8703" lon="5.67413">
        <ele>575.962</ele>
        <time>2013-08-31T09:06:08Z</time>
      </trkpt>
      <trkpt lat="44.87028" lon="5.67408">
        <ele>577.503</ele>
        <time>2013-08-31T09:06:12Z</time>
      </trkpt>
      <trkpt lat="44.87023" lon="5.67399">
        <ele>578.446</ele>
        <time>2013-08-31T09:06:24Z</time>
      </trkpt>
      <trkpt lat="44.87015" lon="5.67414">
        <ele>576.531</ele>
        <time>2013-08-31T09:09:24Z</time>
      </trkpt>
      <trkpt lat="44.87011" lon="5.67425">
        <ele>577.985</ele>
        <time>2013-08-31T09:09:32Z</time>
      </trkpt>
      <trkpt lat="44.86999" lon="5.6745">
        <ele>578.948</ele>
        <time>2013-08-31T09:09:45Z</time>
      </trkpt>
      <trkpt lat="44.86998" lon="5.67455">
        <ele>579.288</ele>
        <time>2013-08-31T09:09:47Z</time>
      </trkpt>
      <trkpt lat="44.86987" lon="5.67475">
        <ele>580.925</ele>
        <time>2013-08-31T09:09:55Z</time>
      </trkpt>
      <trkpt lat="44.86981" lon="5.67487">
        <ele>583.807</ele>
        <time>2013-08-31T09:10:02Z</time>
      </trkpt>
      <trkpt lat="44.86967" lon="5.67505">
        <ele>586.853</ele>
        <time>2013-08-31T09:10:14Z</time>
      </trkpt>
      <trkpt lat="44.86952" lon="5.67531">
        <ele>588.59</ele>
        <time>2013-08-31T09:10:26Z</time>
      </trkpt>
      <trkpt lat="44.86957" lon="5.67563">
        <ele>587.973</ele>
        <time>2013-08-31T09:10:34Z</time>
      </trkpt>
      <trkpt lat="44.86954" lon="5.67596">
        <ele>589.249</ele>
        <time>2013-08-31T09:10:43Z</time>
      </trkpt>
      <trkpt lat="44.86947" lon="5.67613">
        <ele>590.603</ele>
        <time>2013-08-31T09:10:48Z</time>
      </trkpt>
      <trkpt lat="44.86927" lon="5.67655">
        <ele>589.379</ele>
        <time>2013-08-31T09:10:59Z</time>
      </trkpt>
      <trkpt lat="44.86913" lon="5.67681">
        <ele>589.972</ele>
        <time>2013-08-31T09:11:07Z</time>
      </trkpt>
      <trkpt lat="44.86907" lon="5.67695">
        <ele>590.668</ele>
        <time>2013-08-31T09:11:13Z</time>
      </trkpt>
      <trkpt lat="44.8689" lon="5.67726">
        <ele>592.57</ele>
        <time>2013-08-31T09:11:25Z</time>
      </trkpt>
      <trkpt lat="44.86888" lon="5.67728">
        <ele>593.473</ele>
        <time>2013-08-31T09:11:26Z</time>
      </trkpt>
      <trkpt lat="44.86886" lon="5.67738">
        <ele>594.737</ele>
        <time>2013-08-31T09:11:30Z</time>
      </trkpt>
      <trkpt lat="44.86884" lon="5.67743">
        <ele>594.962</ele>
        <time>2013-08-31T09:11:32Z</time>
      </trkpt>
      <trkpt lat="44.8688" lon="5.6775">
        <ele>597.233</ele>
        <time>2013-08-31T09:11:38Z</time>
      </trkpt>
      <trkpt lat="44.8688" lon="5.67755">
        <ele>597.14</ele>
        <time>2013-08-31T09:11:40Z</time>
      </trkpt>
      <trkpt lat="44.86876" lon="5.67762">
        <ele>598.199</ele>
        <time>2013-08-31T09:11:43Z</time>
      </trkpt>
      <trkpt lat="44.86864" lon="5.67784">
        <ele>600.467</ele>
        <time>2013-08-31T09:11:53Z</time>
      </trkpt>
      <trkpt lat="44.86854" lon="5.67815">
        <ele>602.917</ele>
        <time>2013-08-31T09:12:05Z</time>
      </trkpt>
      <trkpt lat="44.86843" lon="5.67833">
        <ele>604.577</ele>
        <time>2013-08-31T09:12:15Z</time>
      </trkpt>
      <trkpt lat="44.86838" lon="5.67839">
        <ele>605.125</ele>
        <time>2013-08-31T09:12:19Z</time>
      </trkpt>
      <trkpt lat="44.86825" lon="5.67869">
        <ele>606.582</ele>
        <time>2013-08-31T09:12:33Z</time>
      </trkpt>
      <trkpt lat="44.86809" lon="5.67901">
        <ele>608.331</ele>
        <time>2013-08-31T09:12:46Z</time>
      </trkpt>
      <trkpt lat="44.86801" lon="5.67916">
        <ele>609.89</ele>
        <time>2013-08-31T09:12:53Z</time>
      </trkpt>
      <trkpt lat="44.86786" lon="5.67946">
        <ele>610.493</ele>
        <time>2013-08-31T09:13:02Z</time>
      </trkpt>
      <trkpt lat="44.86763" lon="5.67984">
        <ele>611.3</ele>
        <time>2013-08-31T09:13:14Z</time>
      </trkpt>
      <trkpt lat="44.8674" lon="5.68024">
        <ele>612.101</ele>
        <time>2013-08-31T09:13:25Z</time>
      </trkpt>
      <trkpt lat="44.86729" lon="5.68045">
        <ele>613.326</ele>
        <time>2013-08-31T09:13:35Z</time>
      </trkpt>
      <trkpt lat="44.86725" lon="5.68056">
        <ele>616.314</ele>
        <time>2013-08-31T09:13:42Z</time>
      </trkpt>
      <trkpt lat="44.86725" lon="5.6806">
        <ele>617.509</ele>
        <time>2013-08-31T09:13:45Z</time>
      </trkpt>
      <trkpt lat="44.86724" lon="5.68066">
        <ele>617.821</ele>
        <time>2013-08-31T09:13:48Z</time>
      </trkpt>
      <trkpt lat="44.8672" lon="5.68084">
        <ele>620.284</ele>
        <time>2013-08-31T09:13:56Z</time>
      </trkpt>
      <trkpt lat="44.86715" lon="5.68105">
        <ele>622.996</ele>
        <time>2013-08-31T09:14:07Z</time>
      </trkpt>
      <trkpt lat="44.86713" lon="5.68113">
        <ele>624.404</ele>
        <time>2013-08-31T09:14:11Z</time>
      </trkpt>
      <trkpt lat="44.86706" lon="5.68119">
        <ele>625.927</ele>
        <time>2013-08-31T09:14:21Z</time>
      </trkpt>
      <trkpt lat="44.86704" lon="5.68126">
        <ele>628.418</ele>
        <time>2013-08-31T09:14:33Z</time>
      </trkpt>
      <trkpt lat="44.86691" lon="5.68142">
        <ele>630.257</ele>
        <time>2013-08-31T09:14:49Z</time>
      </trkpt>
      <trkpt lat="44.86689" lon="5.68152">
        <ele>631.491</ele>
        <time>2013-08-31T09:15:00Z</time>
      </trkpt>
      <trkpt lat="44.86685" lon="5.68179">
        <ele>633.211</ele>
        <time>2013-08-31T09:15:13Z</time>
      </trkpt>
      <trkpt lat="44.86676" lon="5.68205">
        <ele>635.829</ele>
        <time>2013-08-31T09:15:25Z</time>
      </trkpt>
      <trkpt lat="44.86674" lon="5.68214">
        <ele>636.36</ele>
        <time>2013-08-31T09:15:29Z</time>
      </trkpt>
      <trkpt lat="44.86675" lon="5.68224">
        <ele>636.881</ele>
        <time>2013-08-31T09:15:33Z</time>
      </trkpt>
      <trkpt lat="44.8667" lon="5.68229">
        <ele>638.591</ele>
        <time>2013-08-31T09:15:38Z</time>
      </trkpt>
      <trkpt lat="44.86666" lon="5.68228">
        <ele>638.937</ele>
        <time>2013-08-31T09:15:40Z</time>
      </trkpt>
      <trkpt lat="44.8666" lon="5.68237">
        <ele>634.676</ele>
        <time>2013-08-31T09:15:44Z</time>
      </trkpt>
      <trkpt lat="44.86654" lon="5.68256">
        <ele>633.064</ele>
        <time>2013-08-31T09:15:47Z</time>
      </trkpt>
      <trkpt lat="44.86647" lon="5.6827">
        <ele>634.331</ele>
        <time>2013-08-31T09:15:49Z</time>
      </trkpt>
      <trkpt lat="44.86614" lon="5.68304">
        <ele>634.02</ele>
        <time>2013-08-31T09:15:58Z</time>
      </trkpt>
      <trkpt lat="44.86607" lon="5.68308">
        <ele>634.381</ele>
        <time>2013-08-31T09:16:00Z</time>
      </trkpt>
      <trkpt lat="44.86574" lon="5.68325">
        <ele>635.854</ele>
        <time>2013-08-31T09:16:12Z</time>
      </trkpt>
      <trkpt lat="44.86566" lon="5.68348">
        <ele>637.713</ele>
        <time>2013-08-31T09:16:22Z</time>
      </trkpt>
      <trkpt lat="44.86554" lon="5.68364">
        <ele>639.959</ele>
        <time>2013-08-31T09:16:30Z</time>
      </trkpt>
      <trkpt lat="44.86534" lon="5.68389">
        <ele>639.793</ele>
        <time>2013-08-31T09:16:40Z</time>
      </trkpt>
      <trkpt lat="44.86516" lon="5.68414">
        <ele>637.852</ele>
        <time>2013-08-31T09:16:47Z</time>
      </trkpt>
      <trkpt lat="44.86514" lon="5.68423">
        <ele>636.63</ele>
        <time>2013-08-31T09:16:49Z</time>
      </trkpt>
      <trkpt lat="44.86496" lon="5.68468">
        <ele>633.197</ele>
        <time>2013-08-31T09:16:58Z</time>
      </trkpt>
      <trkpt lat="44.86493" lon="5.68473">
        <ele>633.193</ele>
        <time>2013-08-31T09:16:59Z</time>
      </trkpt>
      <trkpt lat="44.86473" lon="5.68509">
        <ele>634.01</ele>
        <time>2013-08-31T09:17:08Z</time>
      </trkpt>
      <trkpt lat="44.86466" lon="5.68518">
        <ele>633.693</ele>
        <time>2013-08-31T09:17:12Z</time>
      </trkpt>
      <trkpt lat="44.86461" lon="5.68525">
        <ele>634.428</ele>
        <time>2013-08-31T09:17:15Z</time>
      </trkpt>
      <trkpt lat="44.86456" lon="5.6854">
        <ele>636.365</ele>
        <time>2013-08-31T09:17:24Z</time>
      </trkpt>
      <trkpt lat="44.86456" lon="5.68551">
        <ele>637.515</ele>
        <time>2013-08-31T09:17:28Z</time>
      </trkpt>
      <trkpt lat="44.86452" lon="5.68574">
        <ele>640.181</ele>
        <time>2013-08-31T09:17:38Z</time>
      </trkpt>
      <trkpt lat="44.86455" lon="5.68583">
        <ele>641.753</ele>
        <time>2013-08-31T09:17:43Z</time>
      </trkpt>
      <trkpt lat="44.86457" lon="5.68585">
        <ele>642.055</ele>
        <time>2013-08-31T09:17:45Z</time>
      </trkpt>
      <trkpt lat="44.86456" lon="5.686">
        <ele>644.011</ele>
        <time>2013-08-31T09:17:59Z</time>
      </trkpt>
      <trkpt lat="44.86454" lon="5.6861">
        <ele>645.05</ele>
        <time>2013-08-31T09:18:07Z</time>
      </trkpt>
      <trkpt lat="44.86453" lon="5.68613">
        <ele>644.931</ele>
        <time>2013-08-31T09:18:09Z</time>
      </trkpt>
      <trkpt lat="44.8645" lon="5.68639">
        <ele>648.263</ele>
        <time>2013-08-31T09:18:26Z</time>
      </trkpt>
      <trkpt lat="44.86447" lon="5.6865">
        <ele>649.239</ele>
        <time>2013-08-31T09:18:39Z</time>
      </trkpt>
      <trkpt lat="44.86435" lon="5.68677">
        <ele>651.527</ele>
        <time>2013-08-31T09:18:55Z</time>
      </trkpt>
      <trkpt lat="44.86434" lon="5.68681">
        <ele>652.191</ele>
        <time>2013-08-31T09:18:57Z</time>
      </trkpt>
      <trkpt lat="44.86427" lon="5.68692">
        <ele>653.803</ele>
        <time>2013-08-31T09:19:11Z</time>
      </trkpt>
      <trkpt lat="44.86418" lon="5.68711">
        <ele>654.561</ele>
        <time>2013-08-31T09:19:22Z</time>
      </trkpt>
      <trkpt lat="44.86412" lon="5.68719">
        <ele>656.033</ele>
        <time>2013-08-31T09:19:27Z</time>
      </trkpt>
      <trkpt lat="44.8641" lon="5.68724">
        <ele>656.672</ele>
        <time>2013-08-31T09:19:30Z</time>
      </trkpt>
      <trkpt lat="44.8641" lon="5.68731">
        <ele>657.379</ele>
        <time>2013-08-31T09:19:34Z</time>
      </trkpt>
      <trkpt lat="44.86405" lon="5.68733">
        <ele>658.775</ele>
        <time>2013-08-31T09:19:38Z</time>
      </trkpt>
      <trkpt lat="44.86393" lon="5.68744">
        <ele>659.922</ele>
        <time>2013-08-31T09:19:49Z</time>
      </trkpt>
      <trkpt lat="44.86389" lon="5.68756">
        <ele>660.762</ele>
        <time>2013-08-31T09:19:56Z</time>
      </trkpt>
      <trkpt lat="44.86383" lon="5.68765">
        <ele>663.438</ele>
        <time>2013-08-31T09:20:08Z</time>
      </trkpt>
      <trkpt lat="44.86378" lon="5.68768">
        <ele>663.174</ele>
        <time>2013-08-31T09:20:21Z</time>
      </trkpt>
      <trkpt lat="44.86366" lon="5.68778">
        <ele>663.828</ele>
        <time>2013-08-31T09:20:31Z</time>
      </trkpt>
      <trkpt lat="44.86363" lon="5.6879">
        <ele>664.221</ele>
        <time>2013-08-31T09:20:40Z</time>
      </trkpt>
      <trkpt lat="44.86364" lon="5.68799">
        <ele>663.872</ele>
        <time>2013-08-31T09:20:43Z</time>
      </trkpt>
      <trkpt lat="44.86349" lon="5.68816">
        <ele>664.775</ele>
        <time>2013-08-31T09:20:54Z</time>
      </trkpt>
      <trkpt lat="44.86344" lon="5.68821">
        <ele>665.556</ele>
        <time>2013-08-31T09:20:58Z</time>
      </trkpt>
      <trkpt lat="44.8634" lon="5.68828">
        <ele>665.994</ele>
        <time>2013-08-31T09:21:02Z</time>
      </trkpt>
      <trkpt lat="44.86334" lon="5.68834">
        <ele>666.845</ele>
        <time>2013-08-31T09:21:06Z</time>
      </trkpt>
      <trkpt lat="44.86321" lon="5.68847">
        <ele>669.394</ele>
        <time>2013-08-31T09:21:18Z</time>
      </trkpt>
      <trkpt lat="44.86288" lon="5.68864">
        <ele>671.395</ele>
        <time>2013-08-31T09:21:32Z</time>
      </trkpt>
      <trkpt lat="44.86274" lon="5.68874">
        <ele>674.095</ele>
        <time>2013-08-31T09:21:46Z</time>
      </trkpt>
      <trkpt lat="44.86266" lon="5.68883">
        <ele>675.745</ele>
        <time>2013-08-31T09:21:54Z</time>
      </trkpt>
      <trkpt lat="44.86257" lon="5.68884">
        <ele>676.594</ele>
        <time>2013-08-31T09:22:07Z</time>
      </trkpt>
      <trkpt lat="44.86251" lon="5.68884">
        <ele>677.042</ele>
        <time>2013-08-31T09:22:10Z</time>
      </trkpt>
      <trkpt lat="44.86246" lon="5.68883">
        <ele>676.941</ele>
        <time>2013-08-31T09:22:14Z</time>
      </trkpt>
      <trkpt lat="44.86242" lon="5.68888">
        <ele>677.595</ele>
        <time>2013-08-31T09:22:24Z</time>
      </trkpt>
      <trkpt lat="44.86244" lon="5.68889">
        <ele>678.986</ele>
        <time>2013-08-31T09:22:36Z</time>
      </trkpt>
      <trkpt lat="44.86258" lon="5.689">
        <ele>679.945</ele>
        <time>2013-08-31T09:22:46Z</time>
      </trkpt>
      <trkpt lat="44.86254" lon="5.68902">
        <ele>681.049</ele>
        <time>2013-08-31T09:22:51Z</time>
      </trkpt>
      <trkpt lat="44.86249" lon="5.68905">
        <ele>682.55</ele>
        <time>2013-08-31T09:23:03Z</time>
      </trkpt>
      <trkpt lat="44.86249" lon="5.68914">
        <ele>684.51</ele>
        <time>2013-08-31T09:23:18Z</time>
      </trkpt>
      <trkpt lat="44.86241" lon="5.68925">
        <ele>686.616</ele>
        <time>2013-08-31T09:23:51Z</time>
      </trkpt>
      <trkpt lat="44.86245" lon="5.6893">
        <ele>688.782</ele>
        <time>2013-08-31T09:24:02Z</time>
      </trkpt>
      <trkpt lat="44.86256" lon="5.68933">
        <ele>689.398</ele>
        <time>2013-08-31T09:24:18Z</time>
      </trkpt>
      <trkpt lat="44.8629" lon="5.6893">
        <ele>689.905</ele>
        <time>2013-08-31T09:24:36Z</time>
      </trkpt>
      <trkpt lat="44.863" lon="5.68928">
        <ele>689.058</ele>
        <time>2013-08-31T09:24:41Z</time>
      </trkpt>
      <trkpt lat="44.86298" lon="5.68937">
        <ele>689.22</ele>
        <time>2013-08-31T09:24:48Z</time>
      </trkpt>
      <trkpt lat="44.86266" lon="5.68963">
        <ele>692.642</ele>
        <time>2013-08-31T09:25:08Z</time>
      </trkpt>
      <trkpt lat="44.86239" lon="5.68987">
        <ele>695.693</ele>
        <time>2013-08-31T09:25:27Z</time>
      </trkpt>
      <trkpt lat="44.86215" lon="5.69013">
        <ele>698.867</ele>
        <time>2013-08-31T09:25:46Z</time>
      </trkpt>
      <trkpt lat="44.86193" lon="5.69039">
        <ele>702.069</ele>
        <time>2013-08-31T09:26:06Z</time>
      </trkpt>
      <trkpt lat="44.86171" lon="5.69057">
        <ele>704.392</ele>
        <time>2013-08-31T09:26:24Z</time>
      </trkpt>
      <trkpt lat="44.86166" lon="5.69058">
        <ele>705.29</ele>
        <time>2013-08-31T09:26:28Z</time>
      </trkpt>
      <trkpt lat="44.86149" lon="5.6907">
        <ele>706.615</ele>
        <time>2013-08-31T09:26:40Z</time>
      </trkpt>
      <trkpt lat="44.86141" lon="5.69074">
        <ele>707.493</ele>
        <time>2013-08-31T09:26:45Z</time>
      </trkpt>
      <trkpt lat="44.86118" lon="5.691">
        <ele>709.175</ele>
        <time>2013-08-31T09:27:03Z</time>
      </trkpt>
      <trkpt lat="44.86095" lon="5.69128">
        <ele>711.94</ele>
        <time>2013-08-31T09:27:22Z</time>
      </trkpt>
      <trkpt lat="44.86062" lon="5.69166">
        <ele>712.823</ele>
        <time>2013-08-31T09:27:41Z</time>
      </trkpt>
      <trkpt lat="44.86036" lon="5.6921">
        <ele>715.637</ele>
        <time>2013-08-31T09:27:59Z</time>
      </trkpt>
      <trkpt lat="44.86025" lon="5.69258">
        <ele>718.491</ele>
        <time>2013-08-31T09:28:16Z</time>
      </trkpt>
      <trkpt lat="44.86005" lon="5.69322">
        <ele>721.073</ele>
        <time>2013-08-31T09:28:38Z</time>
      </trkpt>
      <trkpt lat="44.85984" lon="5.69383">
        <ele>724.144</ele>
        <time>2013-08-31T09:29:00Z</time>
      </trkpt>
      <trkpt lat="44.85946" lon="5.69456">
        <ele>726.501</ele>
        <time>2013-08-31T09:29:26Z</time>
      </trkpt>
      <trkpt lat="44.85918" lon="5.69505">
        <ele>728.665</ele>
        <time>2013-08-31T09:29:46Z</time>
      </trkpt>
      <trkpt lat="44.85915" lon="5.69513">
        <ele>729.404</ele>
        <time>2013-08-31T09:29:49Z</time>
      </trkpt>
      <trkpt lat="44.85913" lon="5.6952">
        <ele>729.455</ele>
        <time>2013-08-31T09:29:52Z</time>
      </trkpt>
      <trkpt lat="44.85907" lon="5.69524">
        <ele>730.462</ele>
        <time>2013-08-31T09:29:56Z</time>
      </trkpt>
      <trkpt lat="44.85904" lon="5.69526">
        <ele>729.917</ele>
        <time>2013-08-31T09:29:58Z</time>
      </trkpt>
      <trkpt lat="44.859" lon="5.69534">
        <ele>729.986</ele>
        <time>2013-08-31T09:30:02Z</time>
      </trkpt>
      <trkpt lat="44.85894" lon="5.69536">
        <ele>730.472</ele>
        <time>2013-08-31T09:30:06Z</time>
      </trkpt>
      <trkpt lat="44.85889" lon="5.69536">
        <ele>730.285</ele>
        <time>2013-08-31T09:30:09Z</time>
      </trkpt>
      <trkpt lat="44.85883" lon="5.69538">
        <ele>730.56</ele>
        <time>2013-08-31T09:30:13Z</time>
      </trkpt>
      <trkpt lat="44.85893" lon="5.69539">
        <ele>730.125</ele>
        <time>2013-08-31T09:30:26Z</time>
      </trkpt>
      <trkpt lat="44.85897" lon="5.69541">
        <ele>730.554</ele>
        <time>2013-08-31T09:30:28Z</time>
      </trkpt>
      <trkpt lat="44.85894" lon="5.69574">
        <ele>730.557</ele>
        <time>2013-08-31T09:30:39Z</time>
      </trkpt>
      <trkpt lat="44.85871" lon="5.6965">
        <ele>730.583</ele>
        <time>2013-08-31T09:30:57Z</time>
      </trkpt>
      <trkpt lat="44.85861" lon="5.69732">
        <ele>731.318</ele>
        <time>2013-08-31T09:31:16Z</time>
      </trkpt>
      <trkpt lat="44.85843" lon="5.69783">
        <ele>733.353</ele>
        <time>2013-08-31T09:31:32Z</time>
      </trkpt>
      <trkpt lat="44.85827" lon="5.69808">
        <ele>736.934</ele>
        <time>2013-08-31T09:31:44Z</time>
      </trkpt>
      <trkpt lat="44.85814" lon="5.69847">
        <ele>740.276</ele>
        <time>2013-08-31T09:32:00Z</time>
      </trkpt>
      <trkpt lat="44.85801" lon="5.69886">
        <ele>741.49</ele>
        <time>2013-08-31T09:32:16Z</time>
      </trkpt>
      <trkpt lat="44.85787" lon="5.69894">
        <ele>742.21</ele>
        <time>2013-08-31T09:32:24Z</time>
      </trkpt>
      <trkpt lat="44.85783" lon="5.699">
        <ele>741.985</ele>
        <time>2013-08-31T09:32:29Z</time>
      </trkpt>
      <trkpt lat="44.85779" lon="5.69952">
        <ele>742.626</ele>
        <time>2013-08-31T09:32:47Z</time>
      </trkpt>
      <trkpt lat="44.85775" lon="5.69973">
        <ele>742.794</ele>
        <time>2013-08-31T09:32:56Z</time>
      </trkpt>
      <trkpt lat="44.85774" lon="5.69976">
        <ele>742.956</ele>
        <time>2013-08-31T09:32:59Z</time>
      </trkpt>
      <trkpt lat="44.85761" lon="5.6999">
        <ele>745.981</ele>
        <time>2013-08-31T09:33:19Z</time>
      </trkpt>
      <trkpt lat="44.85751" lon="5.70008">
        <ele>749.203</ele>
        <time>2013-08-31T09:33:38Z</time>
      </trkpt>
      <trkpt lat="44.85745" lon="5.70021">
        <ele>751.393</ele>
        <time>2013-08-31T09:33:53Z</time>
      </trkpt>
      <trkpt lat="44.8574" lon="5.70027">
        <ele>753.51</ele>
        <time>2013-08-31T09:34:13Z</time>
      </trkpt>
      <trkpt lat="44.85733" lon="5.70032">
        <ele>756.607</ele>
        <time>2013-08-31T09:34:29Z</time>
      </trkpt>
      <trkpt lat="44.85728" lon="5.70035">
        <ele>759.285</ele>
        <time>2013-08-31T09:34:45Z</time>
      </trkpt>
      <trkpt lat="44.85723" lon="5.7004">
        <ele>760.878</ele>
        <time>2013-08-31T09:35:00Z</time>
      </trkpt>
      <trkpt lat="44.85717" lon="5.70042">
        <ele>762.824</ele>
        <time>2013-08-31T09:35:15Z</time>
      </trkpt>
      <trkpt lat="44.85711" lon="5.70037">
        <ele>764.527</ele>
        <time>2013-08-31T09:35:35Z</time>
      </trkpt>
      <trkpt lat="44.85713" lon="5.70075">
        <ele>765.882</ele>
        <time>2013-08-31T09:40:13Z</time>
      </trkpt>
      <trkpt lat="44.85721" lon="5.70135">
        <ele>766.659</ele>
        <time>2013-08-31T09:40:32Z</time>
      </trkpt>
      <trkpt lat="44.8573" lon="5.70183">
        <ele>767.436</ele>
        <time>2013-08-31T09:40:47Z</time>
      </trkpt>
      <trkpt lat="44.85744" lon="5.70228">
        <ele>767.969</ele>
        <time>2013-08-31T09:41:02Z</time>
      </trkpt>
      <trkpt lat="44.85782" lon="5.7028">
        <ele>769.488</ele>
        <time>2013-08-31T09:41:22Z</time>
      </trkpt>
      <trkpt lat="44.85824" lon="5.70311">
        <ele>770.505</ele>
        <time>2013-08-31T09:41:41Z</time>
      </trkpt>
      <trkpt lat="44.85887" lon="5.70357">
        <ele>771.386</ele>
        <time>2013-08-31T09:42:07Z</time>
      </trkpt>
      <trkpt lat="44.85889" lon="5.70395">
        <ele>770.873</ele>
        <time>2013-08-31T09:42:17Z</time>
      </trkpt>
      <trkpt lat="44.85862" lon="5.70453">
        <ele>771.026</ele>
        <time>2013-08-31T09:42:32Z</time>
      </trkpt>
      <trkpt lat="44.85794" lon="5.70508">
        <ele>771.743</ele>
        <time>2013-08-31T09:42:54Z</time>
      </trkpt>
      <trkpt lat="44.85716" lon="5.70556">
        <ele>772.065</ele>
        <time>2013-08-31T09:43:17Z</time>
      </trkpt>
      <trkpt lat="44.85634" lon="5.70594">
        <ele>773.03</ele>
        <time>2013-08-31T09:43:40Z</time>
      </trkpt>
      <trkpt lat="44.85565" lon="5.70605">
        <ele>774.438</ele>
        <time>2013-08-31T09:44:00Z</time>
      </trkpt>
      <trkpt lat="44.85511" lon="5.70621">
        <ele>775.453</ele>
        <time>2013-08-31T09:44:15Z</time>
      </trkpt>
      <trkpt lat="44.85458" lon="5.70632">
        <ele>776.624</ele>
        <time>2013-08-31T09:44:32Z</time>
      </trkpt>
      <trkpt lat="44.85439" lon="5.70635">
        <ele>777.642</ele>
        <time>2013-08-31T09:44:40Z</time>
      </trkpt>
      <trkpt lat="44.85441" lon="5.70642">
        <ele>777.995</ele>
        <time>2013-08-31T09:44:45Z</time>
      </trkpt>
      <trkpt lat="44.85475" lon="5.70672">
        <ele>777.725</ele>
        <time>2013-08-31T09:45:00Z</time>
      </trkpt>
      <trkpt lat="44.85521" lon="5.70703">
        <ele>778.514</ele>
        <time>2013-08-31T09:45:16Z</time>
      </trkpt>
      <trkpt lat="44.85575" lon="5.70733">
        <ele>779.056</ele>
        <time>2013-08-31T09:45:32Z</time>
      </trkpt>
      <trkpt lat="44.85624" lon="5.70742">
        <ele>777.705</ele>
        <time>2013-08-31T09:45:44Z</time>
      </trkpt>
      <trkpt lat="44.85702" lon="5.70746">
        <ele>779.442</ele>
        <time>2013-08-31T09:46:02Z</time>
      </trkpt>
      <trkpt lat="44.85791" lon="5.70763">
        <ele>779.747</ele>
        <time>2013-08-31T09:46:24Z</time>
      </trkpt>
      <trkpt lat="44.85833" lon="5.70798">
        <ele>781.939</ele>
        <time>2013-08-31T09:46:41Z</time>
      </trkpt>
      <trkpt lat="44.85866" lon="5.70788">
        <ele>782.849</ele>
        <time>2013-08-31T09:46:53Z</time>
      </trkpt>
      <trkpt lat="44.85881" lon="5.70774">
        <ele>781.246</ele>
        <time>2013-08-31T09:46:58Z</time>
      </trkpt>
      <trkpt lat="44.8591" lon="5.70748">
        <ele>777.65</ele>
        <time>2013-08-31T09:47:05Z</time>
      </trkpt>
      <trkpt lat="44.85932" lon="5.70745">
        <ele>775.559</ele>
        <time>2013-08-31T09:47:11Z</time>
      </trkpt>
      <trkpt lat="44.85963" lon="5.70753">
        <ele>777.027</ele>
        <time>2013-08-31T09:47:22Z</time>
      </trkpt>
      <trkpt lat="44.86007" lon="5.70757">
        <ele>777.717</ele>
        <time>2013-08-31T09:47:36Z</time>
      </trkpt>
      <trkpt lat="44.86049" lon="5.70762">
        <ele>777.195</ele>
        <time>2013-08-31T09:47:50Z</time>
      </trkpt>
      <trkpt lat="44.8609" lon="5.70764">
        <ele>777.332</ele>
        <time>2013-08-31T09:48:04Z</time>
      </trkpt>
      <trkpt lat="44.86108" lon="5.7076">
        <ele>778.062</ele>
        <time>2013-08-31T09:48:14Z</time>
      </trkpt>
      <trkpt lat="44.86129" lon="5.70756">
        <ele>778.362</ele>
        <time>2013-08-31T09:48:23Z</time>
      </trkpt>
      <trkpt lat="44.86147" lon="5.70754">
        <ele>778.206</ele>
        <time>2013-08-31T09:48:30Z</time>
      </trkpt>
      <trkpt lat="44.8617" lon="5.70754">
        <ele>778.188</ele>
        <time>2013-08-31T09:48:40Z</time>
      </trkpt>
      <trkpt lat="44.86183" lon="5.70758">
        <ele>777.307</ele>
        <time>2013-08-31T09:48:45Z</time>
      </trkpt>
      <trkpt lat="44.86197" lon="5.70774">
        <ele>777.662</ele>
        <time>2013-08-31T09:48:56Z</time>
      </trkpt>
      <trkpt lat="44.86201" lon="5.70778">
        <ele>775.923</ele>
        <time>2013-08-31T09:49:01Z</time>
      </trkpt>
      <trkpt lat="44.86203" lon="5.70793">
        <ele>774.615</ele>
        <time>2013-08-31T09:49:05Z</time>
      </trkpt>
      <trkpt lat="44.86197" lon="5.70829">
        <ele>774.1</ele>
        <time>2013-08-31T09:49:16Z</time>
      </trkpt>
      <trkpt lat="44.86194" lon="5.7084">
        <ele>774.065</ele>
        <time>2013-08-31T09:49:20Z</time>
      </trkpt>
      <trkpt lat="44.86188" lon="5.70867">
        <ele>772.708</ele>
        <time>2013-08-31T09:49:27Z</time>
      </trkpt>
      <trkpt lat="44.8618" lon="5.70885">
        <ele>772.389</ele>
        <time>2013-08-31T09:49:32Z</time>
      </trkpt>
      <trkpt lat="44.86169" lon="5.70931">
        <ele>770.036</ele>
        <time>2013-08-31T09:49:41Z</time>
      </trkpt>
      <trkpt lat="44.86163" lon="5.7095">
        <ele>767.623</ele>
        <time>2013-08-31T09:49:45Z</time>
      </trkpt>
      <trkpt lat="44.8615" lon="5.7098">
        <ele>764.05</ele>
        <time>2013-08-31T09:49:53Z</time>
      </trkpt>
      <trkpt lat="44.86149" lon="5.70983">
        <ele>764.045</ele>
        <time>2013-08-31T09:49:54Z</time>
      </trkpt>
      <trkpt lat="44.86135" lon="5.70997">
        <ele>760.616</ele>
        <time>2013-08-31T09:50:01Z</time>
      </trkpt>
      <trkpt lat="44.86128" lon="5.71001">
        <ele>759.83</ele>
        <time>2013-08-31T09:50:05Z</time>
      </trkpt>
      <trkpt lat="44.86126" lon="5.71028">
        <ele>760.867</ele>
        <time>2013-08-31T09:50:16Z</time>
      </trkpt>
      <trkpt lat="44.86127" lon="5.71032">
        <ele>761.438</ele>
        <time>2013-08-31T09:50:20Z</time>
      </trkpt>
      <trkpt lat="44.86131" lon="5.71039">
        <ele>760.83</ele>
        <time>2013-08-31T09:50:24Z</time>
      </trkpt>
      <trkpt lat="44.86135" lon="5.71054">
        <ele>761.861</ele>
        <time>2013-08-31T09:50:35Z</time>
      </trkpt>
      <trkpt lat="44.86137" lon="5.71055">
        <ele>762.347</ele>
        <time>2013-08-31T09:50:36Z</time>
      </trkpt>
      <trkpt lat="44.86153" lon="5.71056">
        <ele>761.84</ele>
        <time>2013-08-31T09:50:43Z</time>
      </trkpt>
      <trkpt lat="44.86156" lon="5.71059">
        <ele>762.545</ele>
        <time>2013-08-31T09:50:48Z</time>
      </trkpt>
      <trkpt lat="44.86162" lon="5.71067">
        <ele>763.042</ele>
        <time>2013-08-31T09:50:54Z</time>
      </trkpt>
      <trkpt lat="44.86175" lon="5.71072">
        <ele>761.721</ele>
        <time>2013-08-31T09:50:57Z</time>
      </trkpt>
      <trkpt lat="44.8618" lon="5.71076">
        <ele>761.718</ele>
        <time>2013-08-31T09:51:06Z</time>
      </trkpt>
      <trkpt lat="44.86185" lon="5.71078">
        <ele>761.607</ele>
        <time>2013-08-31T09:51:09Z</time>
      </trkpt>
      <trkpt lat="44.86197" lon="5.71087">
        <ele>760.332</ele>
        <time>2013-08-31T09:51:14Z</time>
      </trkpt>
      <trkpt lat="44.862" lon="5.71096">
        <ele>759.829</ele>
        <time>2013-08-31T09:51:18Z</time>
      </trkpt>
      <trkpt lat="44.86205" lon="5.71106">
        <ele>758.879</ele>
        <time>2013-08-31T09:51:23Z</time>
      </trkpt>
      <trkpt lat="44.86222" lon="5.71123">
        <ele>756.286</ele>
        <time>2013-08-31T09:51:30Z</time>
      </trkpt>
      <trkpt lat="44.86269" lon="5.71148">
        <ele>757.232</ele>
        <time>2013-08-31T09:51:41Z</time>
      </trkpt>
      <trkpt lat="44.86275" lon="5.71155">
        <ele>757.935</ele>
        <time>2013-08-31T09:51:44Z</time>
      </trkpt>
      <trkpt lat="44.86274" lon="5.71158">
        <ele>758.568</ele>
        <time>2013-08-31T09:52:05Z</time>
      </trkpt>
      <trkpt lat="44.86267" lon="5.71167">
        <ele>761.767</ele>
        <time>2013-08-31T09:52:21Z</time>
      </trkpt>
      <trkpt lat="44.86259" lon="5.71174">
        <ele>764.457</ele>
        <time>2013-08-31T09:52:38Z</time>
      </trkpt>
      <trkpt lat="44.8625" lon="5.71184">
        <ele>767.834</ele>
        <time>2013-08-31T09:52:53Z</time>
      </trkpt>
      <trkpt lat="44.86243" lon="5.71193">
        <ele>769.75</ele>
        <time>2013-08-31T09:53:07Z</time>
      </trkpt>
      <trkpt lat="44.86233" lon="5.71194">
        <ele>772.791</ele>
        <time>2013-08-31T09:53:21Z</time>
      </trkpt>
      <trkpt lat="44.86219" lon="5.71185">
        <ele>775.382</ele>
        <time>2013-08-31T09:53:38Z</time>
      </trkpt>
      <trkpt lat="44.8621" lon="5.71178">
        <ele>777.201</ele>
        <time>2013-08-31T09:53:49Z</time>
      </trkpt>
      <trkpt lat="44.86196" lon="5.71172">
        <ele>779.221</ele>
        <time>2013-08-31T09:54:02Z</time>
      </trkpt>
      <trkpt lat="44.86182" lon="5.71158">
        <ele>782.279</ele>
        <time>2013-08-31T09:54:21Z</time>
      </trkpt>
      <trkpt lat="44.86165" lon="5.71143">
        <ele>785.102</ele>
        <time>2013-08-31T09:54:39Z</time>
      </trkpt>
      <trkpt lat="44.86146" lon="5.71131">
        <ele>787.713</ele>
        <time>2013-08-31T09:54:58Z</time>
      </trkpt>
      <trkpt lat="44.8614" lon="5.71125">
        <ele>788.909</ele>
        <time>2013-08-31T09:55:07Z</time>
      </trkpt>
      <trkpt lat="44.86128" lon="5.71115">
        <ele>792.869</ele>
        <time>2013-08-31T09:55:26Z</time>
      </trkpt>
      <trkpt lat="44.86116" lon="5.71112">
        <ele>795.965</ele>
        <time>2013-08-31T09:55:44Z</time>
      </trkpt>
      <trkpt lat="44.86102" lon="5.711">
        <ele>798.999</ele>
        <time>2013-08-31T09:56:01Z</time>
      </trkpt>
      <trkpt lat="44.86088" lon="5.7109">
        <ele>801.064</ele>
        <time>2013-08-31T09:56:18Z</time>
      </trkpt>
      <trkpt lat="44.86089" lon="5.71092">
        <ele>801.282</ele>
        <time>2013-08-31T09:56:36Z</time>
      </trkpt>
      <trkpt lat="44.86108" lon="5.7113">
        <ele>800.294</ele>
        <time>2013-08-31T09:57:01Z</time>
      </trkpt>
      <trkpt lat="44.86118" lon="5.71153">
        <ele>799.919</ele>
        <time>2013-08-31T09:57:05Z</time>
      </trkpt>
      <trkpt lat="44.86138" lon="5.71211">
        <ele>799.087</ele>
        <time>2013-08-31T09:57:17Z</time>
      </trkpt>
      <trkpt lat="44.86141" lon="5.71219">
        <ele>799.083</ele>
        <time>2013-08-31T09:57:18Z</time>
      </trkpt>
      <trkpt lat="44.86142" lon="5.71236">
        <ele>798.785</ele>
        <time>2013-08-31T09:57:21Z</time>
      </trkpt>
      <trkpt lat="44.86145" lon="5.71252">
        <ele>799.286</ele>
        <time>2013-08-31T09:57:25Z</time>
      </trkpt>
      <trkpt lat="44.86144" lon="5.71279">
        <ele>799.762</ele>
        <time>2013-08-31T09:57:31Z</time>
      </trkpt>
      <trkpt lat="44.86141" lon="5.71297">
        <ele>799.817</ele>
        <time>2013-08-31T09:57:35Z</time>
      </trkpt>
      <trkpt lat="44.86127" lon="5.71333">
        <ele>802.802</ele>
        <time>2013-08-31T09:57:43Z</time>
      </trkpt>
      <trkpt lat="44.86117" lon="5.71352">
        <ele>804.543</ele>
        <time>2013-08-31T09:57:50Z</time>
      </trkpt>
      <trkpt lat="44.86121" lon="5.71401">
        <ele>805.311</ele>
        <time>2013-08-31T09:58:02Z</time>
      </trkpt>
      <trkpt lat="44.86125" lon="5.7143">
        <ele>805.266</ele>
        <time>2013-08-31T09:58:08Z</time>
      </trkpt>
      <trkpt lat="44.86145" lon="5.7145">
        <ele>803.976</ele>
        <time>2013-08-31T09:58:14Z</time>
      </trkpt>
      <trkpt lat="44.86176" lon="5.71525">
        <ele>805.638</ele>
        <time>2013-08-31T09:58:29Z</time>
      </trkpt>
      <trkpt lat="44.86187" lon="5.71558">
        <ele>805.79</ele>
        <time>2013-08-31T09:58:37Z</time>
      </trkpt>
      <trkpt lat="44.86185" lon="5.71568">
        <ele>807.786</ele>
        <time>2013-08-31T09:58:41Z</time>
      </trkpt>
      <trkpt lat="44.86181" lon="5.71577">
        <ele>808.685</ele>
        <time>2013-08-31T09:58:46Z</time>
      </trkpt>
      <trkpt lat="44.86167" lon="5.7162">
        <ele>809.215</ele>
        <time>2013-08-31T09:58:59Z</time>
      </trkpt>
      <trkpt lat="44.86157" lon="5.71651">
        <ele>809.812</ele>
        <time>2013-08-31T09:59:08Z</time>
      </trkpt>
      <trkpt lat="44.86137" lon="5.71684">
        <ele>809.469</ele>
        <time>2013-08-31T09:59:18Z</time>
      </trkpt>
      <trkpt lat="44.8611" lon="5.71695">
        <ele>808.609</ele>
        <time>2013-08-31T09:59:25Z</time>
      </trkpt>
      <trkpt lat="44.86061" lon="5.71707">
        <ele>808.187</ele>
        <time>2013-08-31T09:59:37Z</time>
      </trkpt>
      <trkpt lat="44.86057" lon="5.71706">
        <ele>808.031</ele>
        <time>2013-08-31T09:59:38Z</time>
      </trkpt>
      <trkpt lat="44.86024" lon="5.71706">
        <ele>809.379</ele>
        <time>2013-08-31T09:59:47Z</time>
      </trkpt>
      <trkpt lat="44.86008" lon="5.71711">
        <ele>808.706</ele>
        <time>2013-08-31T09:59:51Z</time>
      </trkpt>
      <trkpt lat="44.85995" lon="5.71709">
        <ele>808.77</ele>
        <time>2013-08-31T09:59:56Z</time>
      </trkpt>
      <trkpt lat="44.85972" lon="5.717">
        <ele>808.465</ele>
        <time>2013-08-31T10:00:02Z</time>
      </trkpt>
      <trkpt lat="44.85966" lon="5.71692">
        <ele>809.613</ele>
        <time>2013-08-31T10:00:06Z</time>
      </trkpt>
      <trkpt lat="44.85962" lon="5.7169">
        <ele>809.487</ele>
        <time>2013-08-31T10:00:09Z</time>
      </trkpt>
      <trkpt lat="44.85957" lon="5.71695">
        <ele>809.499</ele>
        <time>2013-08-31T10:00:13Z</time>
      </trkpt>
      <trkpt lat="44.85954" lon="5.71691">
        <ele>807.166</ele>
        <time>2013-08-31T10:00:17Z</time>
      </trkpt>
      <trkpt lat="44.8594" lon="5.71708">
        <ele>805.557</ele>
        <time>2013-08-31T10:00:22Z</time>
      </trkpt>
      <trkpt lat="44.85931" lon="5.71711">
        <ele>804.481</ele>
        <time>2013-08-31T10:00:24Z</time>
      </trkpt>
      <trkpt lat="44.85915" lon="5.71711">
        <ele>804.605</ele>
        <time>2013-08-31T10:00:29Z</time>
      </trkpt>
      <trkpt lat="44.85909" lon="5.71709">
        <ele>805.493</ele>
        <time>2013-08-31T10:00:31Z</time>
      </trkpt>
      <trkpt lat="44.85903" lon="5.71708">
        <ele>805.746</ele>
        <time>2013-08-31T10:00:33Z</time>
      </trkpt>
      <trkpt lat="44.85895" lon="5.71715">
        <ele>804.532</ele>
        <time>2013-08-31T10:00:37Z</time>
      </trkpt>
      <trkpt lat="44.85882" lon="5.71725">
        <ele>803.601</ele>
        <time>2013-08-31T10:00:43Z</time>
      </trkpt>
      <trkpt lat="44.85875" lon="5.71728">
        <ele>802.019</ele>
        <time>2013-08-31T10:00:47Z</time>
      </trkpt>
      <trkpt lat="44.85873" lon="5.71741">
        <ele>801.028</ele>
        <time>2013-08-31T10:00:52Z</time>
      </trkpt>
      <trkpt lat="44.85869" lon="5.71743">
        <ele>800.115</ele>
        <time>2013-08-31T10:00:54Z</time>
      </trkpt>
      <trkpt lat="44.85867" lon="5.71745">
        <ele>800.17</ele>
        <time>2013-08-31T10:00:55Z</time>
      </trkpt>
      <trkpt lat="44.8586" lon="5.71749">
        <ele>796.966</ele>
        <time>2013-08-31T10:01:02Z</time>
      </trkpt>
      <trkpt lat="44.8586" lon="5.71756">
        <ele>795.169</ele>
        <time>2013-08-31T10:01:12Z</time>
      </trkpt>
      <trkpt lat="44.85864" lon="5.71767">
        <ele>794.39</ele>
        <time>2013-08-31T10:01:17Z</time>
      </trkpt>
      <trkpt lat="44.85876" lon="5.71781">
        <ele>798.72</ele>
        <time>2013-08-31T10:01:29Z</time>
      </trkpt>
      <trkpt lat="44.85884" lon="5.71783">
        <ele>801.416</ele>
        <time>2013-08-31T10:01:42Z</time>
      </trkpt>
      <trkpt lat="44.8591" lon="5.71811">
        <ele>801.12</ele>
        <time>2013-08-31T10:01:56Z</time>
      </trkpt>
      <trkpt lat="44.85934" lon="5.71865">
        <ele>800.802</ele>
        <time>2013-08-31T10:02:09Z</time>
      </trkpt>
      <trkpt lat="44.85943" lon="5.71885">
        <ele>800.681</ele>
        <time>2013-08-31T10:02:14Z</time>
      </trkpt>
      <trkpt lat="44.85948" lon="5.71902">
        <ele>799.319</ele>
        <time>2013-08-31T10:02:17Z</time>
      </trkpt>
      <trkpt lat="44.85963" lon="5.71944">
        <ele>797.569</ele>
        <time>2013-08-31T10:02:23Z</time>
      </trkpt>
      <trkpt lat="44.85968" lon="5.71975">
        <ele>799.451</ele>
        <time>2013-08-31T10:02:29Z</time>
      </trkpt>
      <trkpt lat="44.85974" lon="5.72008">
        <ele>802.143</ele>
        <time>2013-08-31T10:02:41Z</time>
      </trkpt>
      <trkpt lat="44.85973" lon="5.72017">
        <ele>804.367</ele>
        <time>2013-08-31T10:02:53Z</time>
      </trkpt>
      <trkpt lat="44.8597" lon="5.7203">
        <ele>807.866</ele>
        <time>2013-08-31T10:03:09Z</time>
      </trkpt>
      <trkpt lat="44.85967" lon="5.72041">
        <ele>810.1</ele>
        <time>2013-08-31T10:03:22Z</time>
      </trkpt>
      <trkpt lat="44.85961" lon="5.72052">
        <ele>813.483</ele>
        <time>2013-08-31T10:03:37Z</time>
      </trkpt>
      <trkpt lat="44.85959" lon="5.72068">
        <ele>816.205</ele>
        <time>2013-08-31T10:03:53Z</time>
      </trkpt>
      <trkpt lat="44.85954" lon="5.72081">
        <ele>819.248</ele>
        <time>2013-08-31T10:04:09Z</time>
      </trkpt>
      <trkpt lat="44.85945" lon="5.721">
        <ele>822</ele>
        <time>2013-08-31T10:04:28Z</time>
      </trkpt>
      <trkpt lat="44.85939" lon="5.72107">
        <ele>823.516</ele>
        <time>2013-08-31T10:04:37Z</time>
      </trkpt>
      <trkpt lat="44.85935" lon="5.72115">
        <ele>825.348</ele>
        <time>2013-08-31T10:04:48Z</time>
      </trkpt>
      <trkpt lat="44.85927" lon="5.72126">
        <ele>828.457</ele>
        <time>2013-08-31T10:05:03Z</time>
      </trkpt>
      <trkpt lat="44.85919" lon="5.72134">
        <ele>829.823</ele>
        <time>2013-08-31T10:05:12Z</time>
      </trkpt>
      <trkpt lat="44.8591" lon="5.72142">
        <ele>830.541</ele>
        <time>2013-08-31T10:05:28Z</time>
      </trkpt>
      <trkpt lat="44.85901" lon="5.72159">
        <ele>830.179</ele>
        <time>2013-08-31T10:05:39Z</time>
      </trkpt>
      <trkpt lat="44.8589" lon="5.72187">
        <ele>830.019</ele>
        <time>2013-08-31T10:05:48Z</time>
      </trkpt>
      <trkpt lat="44.85886" lon="5.72202">
        <ele>829.81</ele>
        <time>2013-08-31T10:05:52Z</time>
      </trkpt>
      <trkpt lat="44.85876" lon="5.7222">
        <ele>827.705</ele>
        <time>2013-08-31T10:05:55Z</time>
      </trkpt>
      <trkpt lat="44.85867" lon="5.72234">
        <ele>824.75</ele>
        <time>2013-08-31T10:05:57Z</time>
      </trkpt>
      <trkpt lat="44.85853" lon="5.72251">
        <ele>822.821</ele>
        <time>2013-08-31T10:05:59Z</time>
      </trkpt>
      <trkpt lat="44.8584" lon="5.72265">
        <ele>821.806</ele>
        <time>2013-08-31T10:06:01Z</time>
      </trkpt>
      <trkpt lat="44.85827" lon="5.72273">
        <ele>820.339</ele>
        <time>2013-08-31T10:06:03Z</time>
      </trkpt>
      <trkpt lat="44.85792" lon="5.72304">
        <ele>818.335</ele>
        <time>2013-08-31T10:06:06Z</time>
      </trkpt>
      <trkpt lat="44.85776" lon="5.72315">
        <ele>815.777</ele>
        <time>2013-08-31T10:06:08Z</time>
      </trkpt>
      <trkpt lat="44.85757" lon="5.7233">
        <ele>817.116</ele>
        <time>2013-08-31T10:06:11Z</time>
      </trkpt>
      <trkpt lat="44.85731" lon="5.72356">
        <ele>814.296</ele>
        <time>2013-08-31T10:06:15Z</time>
      </trkpt>
      <trkpt lat="44.85723" lon="5.72363">
        <ele>814.304</ele>
        <time>2013-08-31T10:06:16Z</time>
      </trkpt>
      <trkpt lat="44.85716" lon="5.72368">
        <ele>811.764</ele>
        <time>2013-08-31T10:06:17Z</time>
      </trkpt>
      <trkpt lat="44.85701" lon="5.72377">
        <ele>811.08</ele>
        <time>2013-08-31T10:06:19Z</time>
      </trkpt>
      <trkpt lat="44.85669" lon="5.72392">
        <ele>813.659</ele>
        <time>2013-08-31T10:06:23Z</time>
      </trkpt>
      <trkpt lat="44.8565" lon="5.72396">
        <ele>815.999</ele>
        <time>2013-08-31T10:06:27Z</time>
      </trkpt>
      <trkpt lat="44.85646" lon="5.72396">
        <ele>817.262</ele>
        <time>2013-08-31T10:06:29Z</time>
      </trkpt>
      <trkpt lat="44.85639" lon="5.72397">
        <ele>818.846</ele>
        <time>2013-08-31T10:06:32Z</time>
      </trkpt>
      <trkpt lat="44.85614" lon="5.72418">
        <ele>817.22</ele>
        <time>2013-08-31T10:06:40Z</time>
      </trkpt>
      <trkpt lat="44.85609" lon="5.7242">
        <ele>817.226</ele>
        <time>2013-08-31T10:06:41Z</time>
      </trkpt>
      <trkpt lat="44.85599" lon="5.72423">
        <ele>816.3</ele>
        <time>2013-08-31T10:06:43Z</time>
      </trkpt>
      <trkpt lat="44.8556" lon="5.7243">
        <ele>818.927</ele>
        <time>2013-08-31T10:06:54Z</time>
      </trkpt>
      <trkpt lat="44.85532" lon="5.72462">
        <ele>820.182</ele>
        <time>2013-08-31T10:07:06Z</time>
      </trkpt>
      <trkpt lat="44.85512" lon="5.72473">
        <ele>823.183</ele>
        <time>2013-08-31T10:07:17Z</time>
      </trkpt>
      <trkpt lat="44.85477" lon="5.72499">
        <ele>826.495</ele>
        <time>2013-08-31T10:07:33Z</time>
      </trkpt>
      <trkpt lat="44.8545" lon="5.72517">
        <ele>828.617</ele>
        <time>2013-08-31T10:07:47Z</time>
      </trkpt>
      <trkpt lat="44.85429" lon="5.72547">
        <ele>830.673</ele>
        <time>2013-08-31T10:07:59Z</time>
      </trkpt>
      <trkpt lat="44.85414" lon="5.72574">
        <ele>830.501</ele>
        <time>2013-08-31T10:08:06Z</time>
      </trkpt>
      <trkpt lat="44.85392" lon="5.72608">
        <ele>830.131</ele>
        <time>2013-08-31T10:08:15Z</time>
      </trkpt>
      <trkpt lat="44.85361" lon="5.72634">
        <ele>831.096</ele>
        <time>2013-08-31T10:08:28Z</time>
      </trkpt>
      <trkpt lat="44.85335" lon="5.72676">
        <ele>833.341</ele>
        <time>2013-08-31T10:08:41Z</time>
      </trkpt>
      <trkpt lat="44.85332" lon="5.72683">
        <ele>834.639</ele>
        <time>2013-08-31T10:08:44Z</time>
      </trkpt>
      <trkpt lat="44.85317" lon="5.72709">
        <ele>837.84</ele>
        <time>2013-08-31T10:08:57Z</time>
      </trkpt>
      <trkpt lat="44.85297" lon="5.72732">
        <ele>840.281</ele>
        <time>2013-08-31T10:09:10Z</time>
      </trkpt>
      <trkpt lat="44.8528" lon="5.72761">
        <ele>843.295</ele>
        <time>2013-08-31T10:09:24Z</time>
      </trkpt>
      <trkpt lat="44.85261" lon="5.72792">
        <ele>846.532</ele>
        <time>2013-08-31T10:09:40Z</time>
      </trkpt>
      <trkpt lat="44.85234" lon="5.72824">
        <ele>848.98</ele>
        <time>2013-08-31T10:09:59Z</time>
      </trkpt>
      <trkpt lat="44.8522" lon="5.72851">
        <ele>850.977</ele>
        <time>2013-08-31T10:10:12Z</time>
      </trkpt>
      <trkpt lat="44.85208" lon="5.72878">
        <ele>854.265</ele>
        <time>2013-08-31T10:10:25Z</time>
      </trkpt>
      <trkpt lat="44.85182" lon="5.72919">
        <ele>856.326</ele>
        <time>2013-08-31T10:10:46Z</time>
      </trkpt>
      <trkpt lat="44.8518" lon="5.72921">
        <ele>855.862</ele>
        <time>2013-08-31T10:11:01Z</time>
      </trkpt>
      <trkpt lat="44.85163" lon="5.7294">
        <ele>853.25</ele>
        <time>2013-08-31T10:12:51Z</time>
      </trkpt>
      <trkpt lat="44.85151" lon="5.72952">
        <ele>850.963</ele>
        <time>2013-08-31T10:12:56Z</time>
      </trkpt>
      <trkpt lat="44.85141" lon="5.72965">
        <ele>848.454</ele>
        <time>2013-08-31T10:13:01Z</time>
      </trkpt>
      <trkpt lat="44.85134" lon="5.72979">
        <ele>846.436</ele>
        <time>2013-08-31T10:13:05Z</time>
      </trkpt>
      <trkpt lat="44.85129" lon="5.72987">
        <ele>844.491</ele>
        <time>2013-08-31T10:13:08Z</time>
      </trkpt>
      <trkpt lat="44.85125" lon="5.72994">
        <ele>842.895</ele>
        <time>2013-08-31T10:13:10Z</time>
      </trkpt>
      <trkpt lat="44.85119" lon="5.73001">
        <ele>841.322</ele>
        <time>2013-08-31T10:13:12Z</time>
      </trkpt>
      <trkpt lat="44.85112" lon="5.73009">
        <ele>838.536</ele>
        <time>2013-08-31T10:13:15Z</time>
      </trkpt>
      <trkpt lat="44.85106" lon="5.73015">
        <ele>837.085</ele>
        <time>2013-08-31T10:13:17Z</time>
      </trkpt>
      <trkpt lat="44.851" lon="5.7302">
        <ele>835.711</ele>
        <time>2013-08-31T10:13:19Z</time>
      </trkpt>
      <trkpt lat="44.85095" lon="5.73025">
        <ele>832.6</ele>
        <time>2013-08-31T10:13:21Z</time>
      </trkpt>
      <trkpt lat="44.85091" lon="5.73027">
        <ele>832.599</ele>
        <time>2013-08-31T10:13:22Z</time>
      </trkpt>
      <trkpt lat="44.8508" lon="5.73033">
        <ele>829.692</ele>
        <time>2013-08-31T10:13:26Z</time>
      </trkpt>
      <trkpt lat="44.85077" lon="5.73034">
        <ele>828.538</ele>
        <time>2013-08-31T10:13:27Z</time>
      </trkpt>
      <trkpt lat="44.85073" lon="5.73038">
        <ele>827.661</ele>
        <time>2013-08-31T10:13:29Z</time>
      </trkpt>
      <trkpt lat="44.85068" lon="5.73048">
        <ele>826.414</ele>
        <time>2013-08-31T10:13:31Z</time>
      </trkpt>
      <trkpt lat="44.85064" lon="5.73059">
        <ele>824.995</ele>
        <time>2013-08-31T10:13:33Z</time>
      </trkpt>
      <trkpt lat="44.85064" lon="5.73064">
        <ele>822.987</ele>
        <time>2013-08-31T10:13:34Z</time>
      </trkpt>
      <trkpt lat="44.85058" lon="5.73075">
        <ele>822.059</ele>
        <time>2013-08-31T10:13:36Z</time>
      </trkpt>
      <trkpt lat="44.85053" lon="5.73083">
        <ele>820.331</ele>
        <time>2013-08-31T10:13:38Z</time>
      </trkpt>
      <trkpt lat="44.85042" lon="5.73096">
        <ele>818.002</ele>
        <time>2013-08-31T10:13:42Z</time>
      </trkpt>
      <trkpt lat="44.85036" lon="5.73108">
        <ele>815.376</ele>
        <time>2013-08-31T10:13:45Z</time>
      </trkpt>
      <trkpt lat="44.85034" lon="5.73116">
        <ele>813.257</ele>
        <time>2013-08-31T10:13:46Z</time>
      </trkpt>
      <trkpt lat="44.85023" lon="5.73163">
        <ele>810.262</ele>
        <time>2013-08-31T10:13:52Z</time>
      </trkpt>
      <trkpt lat="44.85018" lon="5.73181">
        <ele>808.215</ele>
        <time>2013-08-31T10:13:54Z</time>
      </trkpt>
      <trkpt lat="44.85016" lon="5.73189">
        <ele>807.122</ele>
        <time>2013-08-31T10:13:55Z</time>
      </trkpt>
      <trkpt lat="44.85006" lon="5.73218">
        <ele>805.276</ele>
        <time>2013-08-31T10:13:59Z</time>
      </trkpt>
      <trkpt lat="44.85004" lon="5.7324">
        <ele>802.969</ele>
        <time>2013-08-31T10:14:02Z</time>
      </trkpt>
      <trkpt lat="44.85001" lon="5.7325">
        <ele>802.266</ele>
        <time>2013-08-31T10:14:04Z</time>
      </trkpt>
      <trkpt lat="44.84997" lon="5.7326">
        <ele>800.959</ele>
        <time>2013-08-31T10:14:06Z</time>
      </trkpt>
      <trkpt lat="44.84991" lon="5.73272">
        <ele>799.131</ele>
        <time>2013-08-31T10:14:08Z</time>
      </trkpt>
      <trkpt lat="44.84984" lon="5.73284">
        <ele>797.679</ele>
        <time>2013-08-31T10:14:10Z</time>
      </trkpt>
      <trkpt lat="44.84982" lon="5.73294">
        <ele>794.243</ele>
        <time>2013-08-31T10:14:12Z</time>
      </trkpt>
      <trkpt lat="44.84982" lon="5.73297">
        <ele>794.241</ele>
        <time>2013-08-31T10:14:13Z</time>
      </trkpt>
      <trkpt lat="44.84977" lon="5.73305">
        <ele>791.492</ele>
        <time>2013-08-31T10:14:14Z</time>
      </trkpt>
      <trkpt lat="44.84968" lon="5.73317">
        <ele>790.056</ele>
        <time>2013-08-31T10:14:17Z</time>
      </trkpt>
      <trkpt lat="44.84965" lon="5.7332">
        <ele>788.958</ele>
        <time>2013-08-31T10:14:18Z</time>
      </trkpt>
      <trkpt lat="44.84958" lon="5.73326">
        <ele>787.115</ele>
        <time>2013-08-31T10:14:20Z</time>
      </trkpt>
      <trkpt lat="44.84951" lon="5.73332">
        <ele>785.555</ele>
        <time>2013-08-31T10:14:22Z</time>
      </trkpt>
      <trkpt lat="44.84944" lon="5.73336">
        <ele>783.641</ele>
        <time>2013-08-31T10:14:24Z</time>
      </trkpt>
      <trkpt lat="44.84935" lon="5.7334">
        <ele>781.817</ele>
        <time>2013-08-31T10:14:26Z</time>
      </trkpt>
      <trkpt lat="44.84927" lon="5.73344">
        <ele>777.516</ele>
        <time>2013-08-31T10:14:28Z</time>
      </trkpt>
      <trkpt lat="44.84922" lon="5.73347">
        <ele>777.515</ele>
        <time>2013-08-31T10:14:29Z</time>
      </trkpt>
      <trkpt lat="44.84912" lon="5.73354">
        <ele>774.971</ele>
        <time>2013-08-31T10:14:31Z</time>
      </trkpt>
      <trkpt lat="44.849" lon="5.73362">
        <ele>772.358</ele>
        <time>2013-08-31T10:14:33Z</time>
      </trkpt>
      <trkpt lat="44.8489" lon="5.7337">
        <ele>768.431</ele>
        <time>2013-08-31T10:14:35Z</time>
      </trkpt>
      <trkpt lat="44.84876" lon="5.73383">
        <ele>766.659</ele>
        <time>2013-08-31T10:14:38Z</time>
      </trkpt>
      <trkpt lat="44.84871" lon="5.73394">
        <ele>764.737</ele>
        <time>2013-08-31T10:14:40Z</time>
      </trkpt>
      <trkpt lat="44.84866" lon="5.7341">
        <ele>761.977</ele>
        <time>2013-08-31T10:14:43Z</time>
      </trkpt>
      <trkpt lat="44.84861" lon="5.7342">
        <ele>759.795</ele>
        <time>2013-08-31T10:14:46Z</time>
      </trkpt>
      <trkpt lat="44.84867" lon="5.73428">
        <ele>758.261</ele>
        <time>2013-08-31T10:14:50Z</time>
      </trkpt>
      <trkpt lat="44.8487" lon="5.73429">
        <ele>757.851</ele>
        <time>2013-08-31T10:14:51Z</time>
      </trkpt>
      <trkpt lat="44.84865" lon="5.73432">
        <ele>757.597</ele>
        <time>2013-08-31T10:14:57Z</time>
      </trkpt>
      <trkpt lat="44.8486" lon="5.7343">
        <ele>757.996</ele>
        <time>2013-08-31T10:14:59Z</time>
      </trkpt>
      <trkpt lat="44.84851" lon="5.73436">
        <ele>758.238</ele>
        <time>2013-08-31T10:15:03Z</time>
      </trkpt>
      <trkpt lat="44.84842" lon="5.73445">
        <ele>756.884</ele>
        <time>2013-08-31T10:15:06Z</time>
      </trkpt>
      <trkpt lat="44.84833" lon="5.73462">
        <ele>755.861</ele>
        <time>2013-08-31T10:15:11Z</time>
      </trkpt>
      <trkpt lat="44.84822" lon="5.73457">
        <ele>756.1</ele>
        <time>2013-08-31T10:15:17Z</time>
      </trkpt>
      <trkpt lat="44.84811" lon="5.73452">
        <ele>755.112</ele>
        <time>2013-08-31T10:15:21Z</time>
      </trkpt>
      <trkpt lat="44.84787" lon="5.7345">
        <ele>753.212</ele>
        <time>2013-08-31T10:15:27Z</time>
      </trkpt>
      <trkpt lat="44.84768" lon="5.73433">
        <ele>753.428</ele>
        <time>2013-08-31T10:15:32Z</time>
      </trkpt>
      <trkpt lat="44.84731" lon="5.73423">
        <ele>751.723</ele>
        <time>2013-08-31T10:15:43Z</time>
      </trkpt>
      <trkpt lat="44.8472" lon="5.73423">
        <ele>751.482</ele>
        <time>2013-08-31T10:15:45Z</time>
      </trkpt>
      <trkpt lat="44.84709" lon="5.7342">
        <ele>751.156</ele>
        <time>2013-08-31T10:15:48Z</time>
      </trkpt>
      <trkpt lat="44.84707" lon="5.73421">
        <ele>752.04</ele>
        <time>2013-08-31T10:16:07Z</time>
      </trkpt>
      <trkpt lat="44.84707" lon="5.73424">
        <ele>752.717</ele>
        <time>2013-08-31T10:16:48Z</time>
      </trkpt>
      <trkpt lat="44.8469" lon="5.73401">
        <ele>753.313</ele>
        <time>2013-08-31T10:17:01Z</time>
      </trkpt>
      <trkpt lat="44.84662" lon="5.7336">
        <ele>755.956</ele>
        <time>2013-08-31T10:17:20Z</time>
      </trkpt>
      <trkpt lat="44.84658" lon="5.73353">
        <ele>756.261</ele>
        <time>2013-08-31T10:17:23Z</time>
      </trkpt>
      <trkpt lat="44.84637" lon="5.73317">
        <ele>758.106</ele>
        <time>2013-08-31T10:17:41Z</time>
      </trkpt>
      <trkpt lat="44.8462" lon="5.73284">
        <ele>758.5</ele>
        <time>2013-08-31T10:17:54Z</time>
      </trkpt>
      <trkpt lat="44.84616" lon="5.73278">
        <ele>758.85</ele>
        <time>2013-08-31T10:17:56Z</time>
      </trkpt>
      <trkpt lat="44.84619" lon="5.73233">
        <ele>758.487</ele>
        <time>2013-08-31T10:18:07Z</time>
      </trkpt>
      <trkpt lat="44.8462" lon="5.73226">
        <ele>758.556</ele>
        <time>2013-08-31T10:18:09Z</time>
      </trkpt>
      <trkpt lat="44.84598" lon="5.73167">
        <ele>760.6</ele>
        <time>2013-08-31T10:18:25Z</time>
      </trkpt>
      <trkpt lat="44.8458" lon="5.73144">
        <ele>762.435</ele>
        <time>2013-08-31T10:18:34Z</time>
      </trkpt>
      <trkpt lat="44.84575" lon="5.73136">
        <ele>762.896</ele>
        <time>2013-08-31T10:18:37Z</time>
      </trkpt>
      <trkpt lat="44.84562" lon="5.73084">
        <ele>765.341</ele>
        <time>2013-08-31T10:18:54Z</time>
      </trkpt>
      <trkpt lat="44.84552" lon="5.73062">
        <ele>766.428</ele>
        <time>2013-08-31T10:19:02Z</time>
      </trkpt>
      <trkpt lat="44.84547" lon="5.73046">
        <ele>767.414</ele>
        <time>2013-08-31T10:19:07Z</time>
      </trkpt>
      <trkpt lat="44.84542" lon="5.73033">
        <ele>767.15</ele>
        <time>2013-08-31T10:19:11Z</time>
      </trkpt>
      <trkpt lat="44.84543" lon="5.73022">
        <ele>767.968</ele>
        <time>2013-08-31T10:19:14Z</time>
      </trkpt>
      <trkpt lat="44.84527" lon="5.72973">
        <ele>770.806</ele>
        <time>2013-08-31T10:19:32Z</time>
      </trkpt>
      <trkpt lat="44.84505" lon="5.72925">
        <ele>773.564</ele>
        <time>2013-08-31T10:19:52Z</time>
      </trkpt>
      <trkpt lat="44.84494" lon="5.72885">
        <ele>776.749</ele>
        <time>2013-08-31T10:20:10Z</time>
      </trkpt>
      <trkpt lat="44.84492" lon="5.72878">
        <ele>777.126</ele>
        <time>2013-08-31T10:20:13Z</time>
      </trkpt>
      <trkpt lat="44.84476" lon="5.72836">
        <ele>778.419</ele>
        <time>2013-08-31T10:20:30Z</time>
      </trkpt>
      <trkpt lat="44.84461" lon="5.72802">
        <ele>781.563</ele>
        <time>2013-08-31T10:20:45Z</time>
      </trkpt>
      <trkpt lat="44.84441" lon="5.72758">
        <ele>783.995</ele>
        <time>2013-08-31T10:21:06Z</time>
      </trkpt>
      <trkpt lat="44.84432" lon="5.72754">
        <ele>785.087</ele>
        <time>2013-08-31T10:21:11Z</time>
      </trkpt>
      <trkpt lat="44.84429" lon="5.72746">
        <ele>785.463</ele>
        <time>2013-08-31T10:21:15Z</time>
      </trkpt>
      <trkpt lat="44.84419" lon="5.72718">
        <ele>787.065</ele>
        <time>2013-08-31T10:21:29Z</time>
      </trkpt>
      <trkpt lat="44.84404" lon="5.72701">
        <ele>789.064</ele>
        <time>2013-08-31T10:21:43Z</time>
      </trkpt>
      <trkpt lat="44.84397" lon="5.72688">
        <ele>790.492</ele>
        <time>2013-08-31T10:21:51Z</time>
      </trkpt>
      <trkpt lat="44.84396" lon="5.72682">
        <ele>791.368</ele>
        <time>2013-08-31T10:21:55Z</time>
      </trkpt>
      <trkpt lat="44.84389" lon="5.72666">
        <ele>793.074</ele>
        <time>2013-08-31T10:22:07Z</time>
      </trkpt>
      <trkpt lat="44.84387" lon="5.72661">
        <ele>793.164</ele>
        <time>2013-08-31T10:22:10Z</time>
      </trkpt>
      <trkpt lat="44.84386" lon="5.72655">
        <ele>793.494</ele>
        <time>2013-08-31T10:22:14Z</time>
      </trkpt>
      <trkpt lat="44.84382" lon="5.72641">
        <ele>794.342</ele>
        <time>2013-08-31T10:22:22Z</time>
      </trkpt>
      <trkpt lat="44.84378" lon="5.72626">
        <ele>794.945</ele>
        <time>2013-08-31T10:22:29Z</time>
      </trkpt>
      <trkpt lat="44.84374" lon="5.72622">
        <ele>795.518</ele>
        <time>2013-08-31T10:22:32Z</time>
      </trkpt>
      <trkpt lat="44.84377" lon="5.72605">
        <ele>796.6</ele>
        <time>2013-08-31T10:22:39Z</time>
      </trkpt>
      <trkpt lat="44.84368" lon="5.72592">
        <ele>797.876</ele>
        <time>2013-08-31T10:22:48Z</time>
      </trkpt>
      <trkpt lat="44.84361" lon="5.72585">
        <ele>798.543</ele>
        <time>2013-08-31T10:22:53Z</time>
      </trkpt>
      <trkpt lat="44.8436" lon="5.72582">
        <ele>798.683</ele>
        <time>2013-08-31T10:22:55Z</time>
      </trkpt>
      <trkpt lat="44.84358" lon="5.72579">
        <ele>799.103</ele>
        <time>2013-08-31T10:22:57Z</time>
      </trkpt>
      <trkpt lat="44.84343" lon="5.72565">
        <ele>800.639</ele>
        <time>2013-08-31T10:23:09Z</time>
      </trkpt>
      <trkpt lat="44.84338" lon="5.72557">
        <ele>800.982</ele>
        <time>2013-08-31T10:23:14Z</time>
      </trkpt>
      <trkpt lat="44.84329" lon="5.7254">
        <ele>803.292</ele>
        <time>2013-08-31T10:23:27Z</time>
      </trkpt>
      <trkpt lat="44.84318" lon="5.72527">
        <ele>804.582</ele>
        <time>2013-08-31T10:23:38Z</time>
      </trkpt>
      <trkpt lat="44.8431" lon="5.72516">
        <ele>805.747</ele>
        <time>2013-08-31T10:23:47Z</time>
      </trkpt>
      <trkpt lat="44.84307" lon="5.7251">
        <ele>806.311</ele>
        <time>2013-08-31T10:23:51Z</time>
      </trkpt>
      <trkpt lat="44.84295" lon="5.72499">
        <ele>807.585</ele>
        <time>2013-08-31T10:24:02Z</time>
      </trkpt>
      <trkpt lat="44.84285" lon="5.72468">
        <ele>810.647</ele>
        <time>2013-08-31T10:24:23Z</time>
      </trkpt>
      <trkpt lat="44.84286" lon="5.72461">
        <ele>810.74</ele>
        <time>2013-08-31T10:24:27Z</time>
      </trkpt>
      <trkpt lat="44.84291" lon="5.72431">
        <ele>813.201</ele>
        <time>2013-08-31T10:24:43Z</time>
      </trkpt>
      <trkpt lat="44.84275" lon="5.72423">
        <ele>814.617</ele>
        <time>2013-08-31T10:24:56Z</time>
      </trkpt>
      <trkpt lat="44.8426" lon="5.72408">
        <ele>816.09</ele>
        <time>2013-08-31T10:25:14Z</time>
      </trkpt>
      <trkpt lat="44.84258" lon="5.72402">
        <ele>816.61</ele>
        <time>2013-08-31T10:25:19Z</time>
      </trkpt>
      <trkpt lat="44.84258" lon="5.72393">
        <ele>817.919</ele>
        <time>2013-08-31T10:25:25Z</time>
      </trkpt>
      <trkpt lat="44.84252" lon="5.72379">
        <ele>820.191</ele>
        <time>2013-08-31T10:25:36Z</time>
      </trkpt>
      <trkpt lat="44.84251" lon="5.72371">
        <ele>820.724</ele>
        <time>2013-08-31T10:25:41Z</time>
      </trkpt>
      <trkpt lat="44.84242" lon="5.72363">
        <ele>823.148</ele>
        <time>2013-08-31T10:25:54Z</time>
      </trkpt>
      <trkpt lat="44.84236" lon="5.72355">
        <ele>823.877</ele>
        <time>2013-08-31T10:26:08Z</time>
      </trkpt>
      <trkpt lat="44.84235" lon="5.72352">
        <ele>824.169</ele>
        <time>2013-08-31T10:26:11Z</time>
      </trkpt>
      <trkpt lat="44.8423" lon="5.72342">
        <ele>824.571</ele>
        <time>2013-08-31T10:26:17Z</time>
      </trkpt>
      <trkpt lat="44.8423" lon="5.72332">
        <ele>825.126</ele>
        <time>2013-08-31T10:26:22Z</time>
      </trkpt>
      <trkpt lat="44.8422" lon="5.72313">
        <ele>827.332</ele>
        <time>2013-08-31T10:26:35Z</time>
      </trkpt>
      <trkpt lat="44.84219" lon="5.72307">
        <ele>827.369</ele>
        <time>2013-08-31T10:26:39Z</time>
      </trkpt>
      <trkpt lat="44.84215" lon="5.72302">
        <ele>828.535</ele>
        <time>2013-08-31T10:26:45Z</time>
      </trkpt>
      <trkpt lat="44.84211" lon="5.72287">
        <ele>830.009</ele>
        <time>2013-08-31T10:27:04Z</time>
      </trkpt>
      <trkpt lat="44.84207" lon="5.72283">
        <ele>830.522</ele>
        <time>2013-08-31T10:27:09Z</time>
      </trkpt>
      <trkpt lat="44.84199" lon="5.72279">
        <ele>831.553</ele>
        <time>2013-08-31T10:27:15Z</time>
      </trkpt>
      <trkpt lat="44.84174" lon="5.72256">
        <ele>833.397</ele>
        <time>2013-08-31T10:27:34Z</time>
      </trkpt>
      <trkpt lat="44.84147" lon="5.72232">
        <ele>835.443</ele>
        <time>2013-08-31T10:27:52Z</time>
      </trkpt>
      <trkpt lat="44.84129" lon="5.72211">
        <ele>836.112</ele>
        <time>2013-08-31T10:28:04Z</time>
      </trkpt>
      <trkpt lat="44.84099" lon="5.72167">
        <ele>837.32</ele>
        <time>2013-08-31T10:28:21Z</time>
      </trkpt>
      <trkpt lat="44.84071" lon="5.72122">
        <ele>838.956</ele>
        <time>2013-08-31T10:28:37Z</time>
      </trkpt>
      <trkpt lat="44.84032" lon="5.72061">
        <ele>839.862</ele>
        <time>2013-08-31T10:28:57Z</time>
      </trkpt>
      <trkpt lat="44.83991" lon="5.72001">
        <ele>841.104</ele>
        <time>2013-08-31T10:29:17Z</time>
      </trkpt>
      <trkpt lat="44.83989" lon="5.71991">
        <ele>841.126</ele>
        <time>2013-08-31T10:29:21Z</time>
      </trkpt>
      <trkpt lat="44.83983" lon="5.71985">
        <ele>841.618</ele>
        <time>2013-08-31T10:29:25Z</time>
      </trkpt>
      <trkpt lat="44.83981" lon="5.71969">
        <ele>840.899</ele>
        <time>2013-08-31T10:29:30Z</time>
      </trkpt>
      <trkpt lat="44.84012" lon="5.71922">
        <ele>841.937</ele>
        <time>2013-08-31T10:29:46Z</time>
      </trkpt>
      <trkpt lat="44.84039" lon="5.71862">
        <ele>843.632</ele>
        <time>2013-08-31T10:30:02Z</time>
      </trkpt>
      <trkpt lat="44.84058" lon="5.71779">
        <ele>845.599</ele>
        <time>2013-08-31T10:30:23Z</time>
      </trkpt>
      <trkpt lat="44.84062" lon="5.71706">
        <ele>847.511</ele>
        <time>2013-08-31T10:30:43Z</time>
      </trkpt>
      <trkpt lat="44.84059" lon="5.7164">
        <ele>850.735</ele>
        <time>2013-08-31T10:31:01Z</time>
      </trkpt>
      <trkpt lat="44.84059" lon="5.7156">
        <ele>853.058</ele>
        <time>2013-08-31T10:31:22Z</time>
      </trkpt>
      <trkpt lat="44.84056" lon="5.71486">
        <ele>855.31</ele>
        <time>2013-08-31T10:31:42Z</time>
      </trkpt>
      <trkpt lat="44.84054" lon="5.71395">
        <ele>858.965</ele>
        <time>2013-08-31T10:32:04Z</time>
      </trkpt>
      <trkpt lat="44.84051" lon="5.71303">
        <ele>862.231</ele>
        <time>2013-08-31T10:32:25Z</time>
      </trkpt>
      <trkpt lat="44.84047" lon="5.71208">
        <ele>865.577</ele>
        <time>2013-08-31T10:32:48Z</time>
      </trkpt>
      <trkpt lat="44.84029" lon="5.71122">
        <ele>867.662</ele>
        <time>2013-08-31T10:33:11Z</time>
      </trkpt>
      <trkpt lat="44.84013" lon="5.71044">
        <ele>871.272</ele>
        <time>2013-08-31T10:33:32Z</time>
      </trkpt>
      <trkpt lat="44.84023" lon="5.70987">
        <ele>872.423</ele>
        <time>2013-08-31T10:33:50Z</time>
      </trkpt>
      <trkpt lat="44.8403" lon="5.70955">
        <ele>871.183</ele>
        <time>2013-08-31T10:35:05Z</time>
      </trkpt>
      <trkpt lat="44.84036" lon="5.70934">
        <ele>869.587</ele>
        <time>2013-08-31T10:35:08Z</time>
      </trkpt>
      <trkpt lat="44.84038" lon="5.70926">
        <ele>868.359</ele>
        <time>2013-08-31T10:35:09Z</time>
      </trkpt>
      <trkpt lat="44.8404" lon="5.70868">
        <ele>865.498</ele>
        <time>2013-08-31T10:35:15Z</time>
      </trkpt>
      <trkpt lat="44.84029" lon="5.70802">
        <ele>862.698</ele>
        <time>2013-08-31T10:35:22Z</time>
      </trkpt>
      <trkpt lat="44.84023" lon="5.70779">
        <ele>861.955</ele>
        <time>2013-08-31T10:35:25Z</time>
      </trkpt>
      <trkpt lat="44.84038" lon="5.70781">
        <ele>861.216</ele>
        <time>2013-08-31T10:35:31Z</time>
      </trkpt>
      <trkpt lat="44.84043" lon="5.70793">
        <ele>860.455</ele>
        <time>2013-08-31T10:35:33Z</time>
      </trkpt>
      <trkpt lat="44.84051" lon="5.70807">
        <ele>859.124</ele>
        <time>2013-08-31T10:35:35Z</time>
      </trkpt>
      <trkpt lat="44.84066" lon="5.70828">
        <ele>857.122</ele>
        <time>2013-08-31T10:35:38Z</time>
      </trkpt>
      <trkpt lat="44.84072" lon="5.70835">
        <ele>855.341</ele>
        <time>2013-08-31T10:35:39Z</time>
      </trkpt>
      <trkpt lat="44.84093" lon="5.70852">
        <ele>853.941</ele>
        <time>2013-08-31T10:35:42Z</time>
      </trkpt>
      <trkpt lat="44.84102" lon="5.70855">
        <ele>851.418</ele>
        <time>2013-08-31T10:35:43Z</time>
      </trkpt>
      <trkpt lat="44.8412" lon="5.70861">
        <ele>849.558</ele>
        <time>2013-08-31T10:35:45Z</time>
      </trkpt>
      <trkpt lat="44.84141" lon="5.7086">
        <ele>847.763</ele>
        <time>2013-08-31T10:35:47Z</time>
      </trkpt>
      <trkpt lat="44.84162" lon="5.70854">
        <ele>845.847</ele>
        <time>2013-08-31T10:35:49Z</time>
      </trkpt>
      <trkpt lat="44.84184" lon="5.70848">
        <ele>841.173</ele>
        <time>2013-08-31T10:35:51Z</time>
      </trkpt>
      <trkpt lat="44.84195" lon="5.70845">
        <ele>841.18</ele>
        <time>2013-08-31T10:35:52Z</time>
      </trkpt>
      <trkpt lat="44.84218" lon="5.70839">
        <ele>838.281</ele>
        <time>2013-08-31T10:35:54Z</time>
      </trkpt>
      <trkpt lat="44.84239" lon="5.70833">
        <ele>837.547</ele>
        <time>2013-08-31T10:35:56Z</time>
      </trkpt>
      <trkpt lat="44.8427" lon="5.70841">
        <ele>835.294</ele>
        <time>2013-08-31T10:35:59Z</time>
      </trkpt>
      <trkpt lat="44.84287" lon="5.70858">
        <ele>833.821</ele>
        <time>2013-08-31T10:36:01Z</time>
      </trkpt>
      <trkpt lat="44.84304" lon="5.70877">
        <ele>832.588</ele>
        <time>2013-08-31T10:36:03Z</time>
      </trkpt>
      <trkpt lat="44.84334" lon="5.70889">
        <ele>829.724</ele>
        <time>2013-08-31T10:36:06Z</time>
      </trkpt>
      <trkpt lat="44.84344" lon="5.70889">
        <ele>828.178</ele>
        <time>2013-08-31T10:36:07Z</time>
      </trkpt>
      <trkpt lat="44.84375" lon="5.70896">
        <ele>825.742</ele>
        <time>2013-08-31T10:36:10Z</time>
      </trkpt>
      <trkpt lat="44.84393" lon="5.70911">
        <ele>824.478</ele>
        <time>2013-08-31T10:36:12Z</time>
      </trkpt>
      <trkpt lat="44.8442" lon="5.70934">
        <ele>821.239</ele>
        <time>2013-08-31T10:36:15Z</time>
      </trkpt>
      <trkpt lat="44.84442" lon="5.70938">
        <ele>819.481</ele>
        <time>2013-08-31T10:36:17Z</time>
      </trkpt>
      <trkpt lat="44.84465" lon="5.70934">
        <ele>817.465</ele>
        <time>2013-08-31T10:36:19Z</time>
      </trkpt>
      <trkpt lat="44.84475" lon="5.70933">
        <ele>816.118</ele>
        <time>2013-08-31T10:36:20Z</time>
      </trkpt>
      <trkpt lat="44.84496" lon="5.70941">
        <ele>814.19</ele>
        <time>2013-08-31T10:36:22Z</time>
      </trkpt>
      <trkpt lat="44.8451" lon="5.70958">
        <ele>812.552</ele>
        <time>2013-08-31T10:36:24Z</time>
      </trkpt>
      <trkpt lat="44.84518" lon="5.70966">
        <ele>810.934</ele>
        <time>2013-08-31T10:36:25Z</time>
      </trkpt>
      <trkpt lat="44.84552" lon="5.70981">
        <ele>806.907</ele>
        <time>2013-08-31T10:36:28Z</time>
      </trkpt>
      <trkpt lat="44.84567" lon="5.70986">
        <ele>806.917</ele>
        <time>2013-08-31T10:36:29Z</time>
      </trkpt>
      <trkpt lat="44.84591" lon="5.70995">
        <ele>805.303</ele>
        <time>2013-08-31T10:36:31Z</time>
      </trkpt>
      <trkpt lat="44.84614" lon="5.71001">
        <ele>803.701</ele>
        <time>2013-08-31T10:36:33Z</time>
      </trkpt>
      <trkpt lat="44.84636" lon="5.71006">
        <ele>798.804</ele>
        <time>2013-08-31T10:36:35Z</time>
      </trkpt>
      <trkpt lat="44.84647" lon="5.71008">
        <ele>798.812</ele>
        <time>2013-08-31T10:36:36Z</time>
      </trkpt>
      <trkpt lat="44.84658" lon="5.71009">
        <ele>797.949</ele>
        <time>2013-08-31T10:36:37Z</time>
      </trkpt>
      <trkpt lat="44.84689" lon="5.70999">
        <ele>796.386</ele>
        <time>2013-08-31T10:36:40Z</time>
      </trkpt>
      <trkpt lat="44.84701" lon="5.70993">
        <ele>792.998</ele>
        <time>2013-08-31T10:36:41Z</time>
      </trkpt>
      <trkpt lat="44.84722" lon="5.70978">
        <ele>790.833</ele>
        <time>2013-08-31T10:36:43Z</time>
      </trkpt>
      <trkpt lat="44.84743" lon="5.70962">
        <ele>788.985</ele>
        <time>2013-08-31T10:36:45Z</time>
      </trkpt>
      <trkpt lat="44.84785" lon="5.70934">
        <ele>785.641</ele>
        <time>2013-08-31T10:36:49Z</time>
      </trkpt>
      <trkpt lat="44.848" lon="5.70923">
        <ele>785.844</ele>
        <time>2013-08-31T10:36:51Z</time>
      </trkpt>
      <trkpt lat="44.84832" lon="5.70901">
        <ele>785.508</ele>
        <time>2013-08-31T10:37:00Z</time>
      </trkpt>
      <trkpt lat="44.84842" lon="5.70897">
        <ele>785.17</ele>
        <time>2013-08-31T10:37:11Z</time>
      </trkpt>
      <trkpt lat="44.84851" lon="5.7089">
        <ele>783.829</ele>
        <time>2013-08-31T10:37:38Z</time>
      </trkpt>
      <trkpt lat="44.84856" lon="5.70891">
        <ele>785.097</ele>
        <time>2013-08-31T10:37:45Z</time>
      </trkpt>
      <trkpt lat="44.84862" lon="5.70886">
        <ele>784.306</ele>
        <time>2013-08-31T10:37:59Z</time>
      </trkpt>
      <trkpt lat="44.84878" lon="5.70867">
        <ele>782.227</ele>
        <time>2013-08-31T10:38:07Z</time>
      </trkpt>
      <trkpt lat="44.84903" lon="5.70854">
        <ele>782.386</ele>
        <time>2013-08-31T10:38:15Z</time>
      </trkpt>
      <trkpt lat="44.84895" lon="5.70845">
        <ele>781.851</ele>
        <time>2013-08-31T10:38:24Z</time>
      </trkpt>
      <trkpt lat="44.8489" lon="5.70836">
        <ele>779.448</ele>
        <time>2013-08-31T10:38:26Z</time>
      </trkpt>
      <trkpt lat="44.84882" lon="5.70806">
        <ele>776.851</ele>
        <time>2013-08-31T10:38:31Z</time>
      </trkpt>
      <trkpt lat="44.84879" lon="5.70791">
        <ele>773.412</ele>
        <time>2013-08-31T10:38:33Z</time>
      </trkpt>
      <trkpt lat="44.84877" lon="5.70783">
        <ele>773.417</ele>
        <time>2013-08-31T10:38:34Z</time>
      </trkpt>
      <trkpt lat="44.84876" lon="5.70775">
        <ele>772.618</ele>
        <time>2013-08-31T10:38:35Z</time>
      </trkpt>
      <trkpt lat="44.84876" lon="5.70754">
        <ele>771.746</ele>
        <time>2013-08-31T10:38:38Z</time>
      </trkpt>
      <trkpt lat="44.84889" lon="5.70726">
        <ele>770.163</ele>
        <time>2013-08-31T10:38:43Z</time>
      </trkpt>
      <trkpt lat="44.84898" lon="5.70718">
        <ele>769.821</ele>
        <time>2013-08-31T10:38:45Z</time>
      </trkpt>
      <trkpt lat="44.84917" lon="5.70692">
        <ele>769.103</ele>
        <time>2013-08-31T10:38:50Z</time>
      </trkpt>
      <trkpt lat="44.84938" lon="5.70692">
        <ele>770.137</ele>
        <time>2013-08-31T10:38:56Z</time>
      </trkpt>
      <trkpt lat="44.84971" lon="5.70698">
        <ele>772.612</ele>
        <time>2013-08-31T10:39:10Z</time>
      </trkpt>
      <trkpt lat="44.84991" lon="5.70714">
        <ele>774.647</ele>
        <time>2013-08-31T10:39:20Z</time>
      </trkpt>
      <trkpt lat="44.85004" lon="5.70736">
        <ele>776.288</ele>
        <time>2013-08-31T10:39:29Z</time>
      </trkpt>
      <trkpt lat="44.85008" lon="5.70741">
        <ele>777.746</ele>
        <time>2013-08-31T10:39:32Z</time>
      </trkpt>
      <trkpt lat="44.85013" lon="5.70742">
        <ele>777.656</ele>
        <time>2013-08-31T10:39:35Z</time>
      </trkpt>
      <trkpt lat="44.85042" lon="5.70734">
        <ele>779.438</ele>
        <time>2013-08-31T10:39:46Z</time>
      </trkpt>
      <trkpt lat="44.85092" lon="5.70691">
        <ele>779.256</ele>
        <time>2013-08-31T10:40:04Z</time>
      </trkpt>
      <trkpt lat="44.85121" lon="5.7066">
        <ele>779.975</ele>
        <time>2013-08-31T10:40:17Z</time>
      </trkpt>
      <trkpt lat="44.85126" lon="5.70658">
        <ele>780.661</ele>
        <time>2013-08-31T10:40:25Z</time>
      </trkpt>
      <trkpt lat="44.85122" lon="5.70658">
        <ele>780.303</ele>
        <time>2013-08-31T10:40:31Z</time>
      </trkpt>
      <trkpt lat="44.85085" lon="5.70698">
        <ele>779.586</ele>
        <time>2013-08-31T10:40:47Z</time>
      </trkpt>
      <trkpt lat="44.8505" lon="5.70726">
        <ele>780.15</ele>
        <time>2013-08-31T10:40:59Z</time>
      </trkpt>
      <trkpt lat="44.85039" lon="5.70734">
        <ele>779.233</ele>
        <time>2013-08-31T10:41:02Z</time>
      </trkpt>
      <trkpt lat="44.85" lon="5.70724">
        <ele>776.173</ele>
        <time>2013-08-31T10:41:10Z</time>
      </trkpt>
      <trkpt lat="44.84995" lon="5.70717">
        <ele>776.177</ele>
        <time>2013-08-31T10:41:11Z</time>
      </trkpt>
      <trkpt lat="44.84976" lon="5.70698">
        <ele>771.761</ele>
        <time>2013-08-31T10:41:14Z</time>
      </trkpt>
      <trkpt lat="44.84959" lon="5.70695">
        <ele>770.247</ele>
        <time>2013-08-31T10:41:16Z</time>
      </trkpt>
      <trkpt lat="44.84949" lon="5.70694">
        <ele>769.343</ele>
        <time>2013-08-31T10:41:17Z</time>
      </trkpt>
      <trkpt lat="44.84917" lon="5.7066">
        <ele>767.087</ele>
        <time>2013-08-31T10:41:24Z</time>
      </trkpt>
      <trkpt lat="44.84917" lon="5.70653">
        <ele>768.608</ele>
        <time>2013-08-31T10:41:34Z</time>
      </trkpt>
      <trkpt lat="44.84916" lon="5.70615">
        <ele>767.422</ele>
        <time>2013-08-31T10:41:43Z</time>
      </trkpt>
      <trkpt lat="44.84894" lon="5.70574">
        <ele>764.816</ele>
        <time>2013-08-31T10:41:49Z</time>
      </trkpt>
      <trkpt lat="44.84889" lon="5.7056">
        <ele>764.065</ele>
        <time>2013-08-31T10:41:51Z</time>
      </trkpt>
      <trkpt lat="44.8489" lon="5.70544">
        <ele>763.558</ele>
        <time>2013-08-31T10:41:53Z</time>
      </trkpt>
      <trkpt lat="44.84896" lon="5.70521">
        <ele>762.866</ele>
        <time>2013-08-31T10:41:56Z</time>
      </trkpt>
      <trkpt lat="44.84935" lon="5.70411">
        <ele>761.483</ele>
        <time>2013-08-31T10:42:10Z</time>
      </trkpt>
      <trkpt lat="44.84938" lon="5.70406">
        <ele>761.487</ele>
        <time>2013-08-31T10:42:11Z</time>
      </trkpt>
      <trkpt lat="44.85014" lon="5.70306">
        <ele>761.589</ele>
        <time>2013-08-31T10:42:32Z</time>
      </trkpt>
      <trkpt lat="44.85018" lon="5.703">
        <ele>761.61</ele>
        <time>2013-08-31T10:42:40Z</time>
      </trkpt>
      <trkpt lat="44.85022" lon="5.7029">
        <ele>760.69</ele>
        <time>2013-08-31T10:42:50Z</time>
      </trkpt>
      <trkpt lat="44.85049" lon="5.7026">
        <ele>758.546</ele>
        <time>2013-08-31T10:42:57Z</time>
      </trkpt>
      <trkpt lat="44.85081" lon="5.70212">
        <ele>755.126</ele>
        <time>2013-08-31T10:43:04Z</time>
      </trkpt>
      <trkpt lat="44.85085" lon="5.70204">
        <ele>755.13</ele>
        <time>2013-08-31T10:43:05Z</time>
      </trkpt>
      <trkpt lat="44.85106" lon="5.70132">
        <ele>758.433</ele>
        <time>2013-08-31T10:43:15Z</time>
      </trkpt>
      <trkpt lat="44.85112" lon="5.70104">
        <ele>760.718</ele>
        <time>2013-08-31T10:43:21Z</time>
      </trkpt>
      <trkpt lat="44.85124" lon="5.70046">
        <ele>762.775</ele>
        <time>2013-08-31T10:43:33Z</time>
      </trkpt>
      <trkpt lat="44.8517" lon="5.69928">
        <ele>762.801</ele>
        <time>2013-08-31T10:43:55Z</time>
      </trkpt>
      <trkpt lat="44.852" lon="5.69863">
        <ele>763.106</ele>
        <time>2013-08-31T10:44:08Z</time>
      </trkpt>
      <trkpt lat="44.85252" lon="5.69763">
        <ele>762.154</ele>
        <time>2013-08-31T10:44:26Z</time>
      </trkpt>
      <trkpt lat="44.85278" lon="5.69684">
        <ele>761.286</ele>
        <time>2013-08-31T10:44:38Z</time>
      </trkpt>
      <trkpt lat="44.85298" lon="5.69618">
        <ele>759.169</ele>
        <time>2013-08-31T10:44:47Z</time>
      </trkpt>
      <trkpt lat="44.85307" lon="5.69588">
        <ele>758.434</ele>
        <time>2013-08-31T10:44:51Z</time>
      </trkpt>
      <trkpt lat="44.8532" lon="5.69561">
        <ele>758.446</ele>
        <time>2013-08-31T10:44:55Z</time>
      </trkpt>
      <trkpt lat="44.85383" lon="5.69498">
        <ele>756.076</ele>
        <time>2013-08-31T10:45:08Z</time>
      </trkpt>
      <trkpt lat="44.85389" lon="5.69493">
        <ele>755.176</ele>
        <time>2013-08-31T10:45:09Z</time>
      </trkpt>
      <trkpt lat="44.85401" lon="5.69475">
        <ele>753.154</ele>
        <time>2013-08-31T10:45:12Z</time>
      </trkpt>
      <trkpt lat="44.85414" lon="5.6946">
        <ele>751.263</ele>
        <time>2013-08-31T10:45:14Z</time>
      </trkpt>
      <trkpt lat="44.85435" lon="5.69436">
        <ele>746.492</ele>
        <time>2013-08-31T10:45:17Z</time>
      </trkpt>
      <trkpt lat="44.85454" lon="5.69421">
        <ele>743.187</ele>
        <time>2013-08-31T10:45:19Z</time>
      </trkpt>
      <trkpt lat="44.85484" lon="5.69401">
        <ele>738.851</ele>
        <time>2013-08-31T10:45:22Z</time>
      </trkpt>
      <trkpt lat="44.85495" lon="5.69395">
        <ele>738.855</ele>
        <time>2013-08-31T10:45:23Z</time>
      </trkpt>
      <trkpt lat="44.85516" lon="5.69382">
        <ele>736.084</ele>
        <time>2013-08-31T10:45:25Z</time>
      </trkpt>
      <trkpt lat="44.85526" lon="5.69374">
        <ele>732.807</ele>
        <time>2013-08-31T10:45:26Z</time>
      </trkpt>
      <trkpt lat="44.85538" lon="5.69367">
        <ele>732.811</ele>
        <time>2013-08-31T10:45:27Z</time>
      </trkpt>
      <trkpt lat="44.85561" lon="5.6935">
        <ele>730.725</ele>
        <time>2013-08-31T10:45:29Z</time>
      </trkpt>
      <trkpt lat="44.85586" lon="5.69337">
        <ele>723.967</ele>
        <time>2013-08-31T10:45:31Z</time>
      </trkpt>
      <trkpt lat="44.856" lon="5.69332">
        <ele>723.972</ele>
        <time>2013-08-31T10:45:32Z</time>
      </trkpt>
      <trkpt lat="44.85627" lon="5.69325">
        <ele>720.98</ele>
        <time>2013-08-31T10:45:34Z</time>
      </trkpt>
      <trkpt lat="44.85654" lon="5.69318">
        <ele>719.659</ele>
        <time>2013-08-31T10:45:36Z</time>
      </trkpt>
      <trkpt lat="44.85741" lon="5.69291">
        <ele>721.148</ele>
        <time>2013-08-31T10:45:44Z</time>
      </trkpt>
      <trkpt lat="44.85809" lon="5.6927">
        <ele>718.03</ele>
        <time>2013-08-31T10:45:51Z</time>
      </trkpt>
      <trkpt lat="44.85829" lon="5.6926">
        <ele>715.904</ele>
        <time>2013-08-31T10:45:53Z</time>
      </trkpt>
      <trkpt lat="44.85848" lon="5.69247">
        <ele>714.441</ele>
        <time>2013-08-31T10:45:55Z</time>
      </trkpt>
      <trkpt lat="44.8591" lon="5.69183">
        <ele>712.987</ele>
        <time>2013-08-31T10:46:04Z</time>
      </trkpt>
      <trkpt lat="44.85944" lon="5.69152">
        <ele>710.785</ele>
        <time>2013-08-31T10:46:09Z</time>
      </trkpt>
      <trkpt lat="44.85995" lon="5.69116">
        <ele>709.326</ele>
        <time>2013-08-31T10:46:16Z</time>
      </trkpt>
      <trkpt lat="44.8601" lon="5.69104">
        <ele>708.186</ele>
        <time>2013-08-31T10:46:18Z</time>
      </trkpt>
      <trkpt lat="44.86028" lon="5.69093">
        <ele>706.774</ele>
        <time>2013-08-31T10:46:20Z</time>
      </trkpt>
      <trkpt lat="44.86063" lon="5.69077">
        <ele>703.841</ele>
        <time>2013-08-31T10:46:24Z</time>
      </trkpt>
      <trkpt lat="44.86106" lon="5.69079">
        <ele>705.703</ele>
        <time>2013-08-31T10:46:30Z</time>
      </trkpt>
      <trkpt lat="44.86111" lon="5.6908">
        <ele>706.466</ele>
        <time>2013-08-31T10:46:31Z</time>
      </trkpt>
      <trkpt lat="44.8613" lon="5.69079">
        <ele>708.807</ele>
        <time>2013-08-31T10:46:37Z</time>
      </trkpt>
      <trkpt lat="44.86149" lon="5.69074">
        <ele>708.418</ele>
        <time>2013-08-31T10:46:50Z</time>
      </trkpt>
      <trkpt lat="44.86171" lon="5.69062">
        <ele>707.513</ele>
        <time>2013-08-31T10:47:01Z</time>
      </trkpt>
      <trkpt lat="44.86184" lon="5.69054">
        <ele>706.426</ele>
        <time>2013-08-31T10:47:10Z</time>
      </trkpt>
      <trkpt lat="44.86186" lon="5.69052">
        <ele>706.562</ele>
        <time>2013-08-31T10:47:13Z</time>
      </trkpt>
      <trkpt lat="44.86196" lon="5.69043">
        <ele>705.158</ele>
        <time>2013-08-31T10:47:21Z</time>
      </trkpt>
      <trkpt lat="44.86218" lon="5.69019">
        <ele>701.056</ele>
        <time>2013-08-31T10:47:34Z</time>
      </trkpt>
      <trkpt lat="44.86221" lon="5.69015">
        <ele>701.057</ele>
        <time>2013-08-31T10:47:35Z</time>
      </trkpt>
      <trkpt lat="44.86227" lon="5.69007">
        <ele>700.44</ele>
        <time>2013-08-31T10:47:37Z</time>
      </trkpt>
      <trkpt lat="44.86253" lon="5.6898">
        <ele>696.738</ele>
        <time>2013-08-31T10:47:44Z</time>
      </trkpt>
      <trkpt lat="44.86263" lon="5.68971">
        <ele>695.207</ele>
        <time>2013-08-31T10:47:46Z</time>
      </trkpt>
      <trkpt lat="44.86298" lon="5.68934">
        <ele>692.103</ele>
        <time>2013-08-31T10:47:56Z</time>
      </trkpt>
      <trkpt lat="44.86298" lon="5.68929">
        <ele>691.831</ele>
        <time>2013-08-31T10:47:57Z</time>
      </trkpt>
      <trkpt lat="44.86297" lon="5.68926">
        <ele>693.057</ele>
        <time>2013-08-31T10:48:00Z</time>
      </trkpt>
      <trkpt lat="44.86294" lon="5.68926">
        <ele>692.754</ele>
        <time>2013-08-31T10:48:02Z</time>
      </trkpt>
      <trkpt lat="44.86255" lon="5.68925">
        <ele>691.789</ele>
        <time>2013-08-31T10:48:17Z</time>
      </trkpt>
      <trkpt lat="44.86245" lon="5.68921">
        <ele>689.813</ele>
        <time>2013-08-31T10:48:27Z</time>
      </trkpt>
      <trkpt lat="44.86248" lon="5.68918">
        <ele>689.172</ele>
        <time>2013-08-31T10:48:30Z</time>
      </trkpt>
      <trkpt lat="44.86254" lon="5.68908">
        <ele>687.123</ele>
        <time>2013-08-31T10:48:44Z</time>
      </trkpt>
      <trkpt lat="44.86252" lon="5.68906">
        <ele>686.049</ele>
        <time>2013-08-31T10:49:02Z</time>
      </trkpt>
      <trkpt lat="44.86257" lon="5.68899">
        <ele>684.864</ele>
        <time>2013-08-31T10:49:38Z</time>
      </trkpt>
      <trkpt lat="44.86261" lon="5.689">
        <ele>684.496</ele>
        <time>2013-08-31T10:49:40Z</time>
      </trkpt>
      <trkpt lat="44.86255" lon="5.68887">
        <ele>682.737</ele>
        <time>2013-08-31T10:49:48Z</time>
      </trkpt>
      <trkpt lat="44.86248" lon="5.68878">
        <ele>681.032</ele>
        <time>2013-08-31T10:49:58Z</time>
      </trkpt>
      <trkpt lat="44.86255" lon="5.68875">
        <ele>680.482</ele>
        <time>2013-08-31T10:50:03Z</time>
      </trkpt>
      <trkpt lat="44.86266" lon="5.68879">
        <ele>679.733</ele>
        <time>2013-08-31T10:50:10Z</time>
      </trkpt>
      <trkpt lat="44.86271" lon="5.68865">
        <ele>676.577</ele>
        <time>2013-08-31T10:50:16Z</time>
      </trkpt>
      <trkpt lat="44.86294" lon="5.68855">
        <ele>673.941</ele>
        <time>2013-08-31T10:50:24Z</time>
      </trkpt>
      <trkpt lat="44.86309" lon="5.68843">
        <ele>672.09</ele>
        <time>2013-08-31T10:50:30Z</time>
      </trkpt>
      <trkpt lat="44.86314" lon="5.6884">
        <ele>670.597</ele>
        <time>2013-08-31T10:50:33Z</time>
      </trkpt>
      <trkpt lat="44.86333" lon="5.68817">
        <ele>667.894</ele>
        <time>2013-08-31T10:50:40Z</time>
      </trkpt>
      <trkpt lat="44.86356" lon="5.68787">
        <ele>668.42</ele>
        <time>2013-08-31T10:50:49Z</time>
      </trkpt>
      <trkpt lat="44.86358" lon="5.68783">
        <ele>668.046</ele>
        <time>2013-08-31T10:50:50Z</time>
      </trkpt>
      <trkpt lat="44.86373" lon="5.68771">
        <ele>666.919</ele>
        <time>2013-08-31T10:50:55Z</time>
      </trkpt>
      <trkpt lat="44.86382" lon="5.6877">
        <ele>667.258</ele>
        <time>2013-08-31T10:50:58Z</time>
      </trkpt>
      <trkpt lat="44.86386" lon="5.68757">
        <ele>664.3</ele>
        <time>2013-08-31T10:51:03Z</time>
      </trkpt>
      <trkpt lat="44.86389" lon="5.68753">
        <ele>663.901</ele>
        <time>2013-08-31T10:51:05Z</time>
      </trkpt>
      <trkpt lat="44.86403" lon="5.68741">
        <ele>663.068</ele>
        <time>2013-08-31T10:51:14Z</time>
      </trkpt>
      <trkpt lat="44.86409" lon="5.68731">
        <ele>660.618</ele>
        <time>2013-08-31T10:51:17Z</time>
      </trkpt>
      <trkpt lat="44.86421" lon="5.68712">
        <ele>658.619</ele>
        <time>2013-08-31T10:51:22Z</time>
      </trkpt>
      <trkpt lat="44.86434" lon="5.6868">
        <ele>654.664</ele>
        <time>2013-08-31T10:51:30Z</time>
      </trkpt>
      <trkpt lat="44.86436" lon="5.68677">
        <ele>654.668</ele>
        <time>2013-08-31T10:51:31Z</time>
      </trkpt>
      <trkpt lat="44.86453" lon="5.68643">
        <ele>651.089</ele>
        <time>2013-08-31T10:51:41Z</time>
      </trkpt>
      <trkpt lat="44.86457" lon="5.68623">
        <ele>648.096</ele>
        <time>2013-08-31T10:51:45Z</time>
      </trkpt>
      <trkpt lat="44.86461" lon="5.68608">
        <ele>648.068</ele>
        <time>2013-08-31T10:51:49Z</time>
      </trkpt>
      <trkpt lat="44.86462" lon="5.68599">
        <ele>646.102</ele>
        <time>2013-08-31T10:51:52Z</time>
      </trkpt>
      <trkpt lat="44.86461" lon="5.68592">
        <ele>645.874</ele>
        <time>2013-08-31T10:51:54Z</time>
      </trkpt>
      <trkpt lat="44.86462" lon="5.68579">
        <ele>644.575</ele>
        <time>2013-08-31T10:51:58Z</time>
      </trkpt>
      <trkpt lat="44.86466" lon="5.6855">
        <ele>639.74</ele>
        <time>2013-08-31T10:52:07Z</time>
      </trkpt>
      <trkpt lat="44.86481" lon="5.68519">
        <ele>638.202</ele>
        <time>2013-08-31T10:52:15Z</time>
      </trkpt>
      <trkpt lat="44.86499" lon="5.68485">
        <ele>638.294</ele>
        <time>2013-08-31T10:52:25Z</time>
      </trkpt>
      <trkpt lat="44.86507" lon="5.68469">
        <ele>638.226</ele>
        <time>2013-08-31T10:52:29Z</time>
      </trkpt>
      <trkpt lat="44.86529" lon="5.68439">
        <ele>640.831</ele>
        <time>2013-08-31T10:52:39Z</time>
      </trkpt>
      <trkpt lat="44.86541" lon="5.68404">
        <ele>643.722</ele>
        <time>2013-08-31T10:52:50Z</time>
      </trkpt>
      <trkpt lat="44.86558" lon="5.68389">
        <ele>644.506</ele>
        <time>2013-08-31T10:52:58Z</time>
      </trkpt>
      <trkpt lat="44.8657" lon="5.68371">
        <ele>643.36</ele>
        <time>2013-08-31T10:53:09Z</time>
      </trkpt>
      <trkpt lat="44.86576" lon="5.68358">
        <ele>641.74</ele>
        <time>2013-08-31T10:53:13Z</time>
      </trkpt>
      <trkpt lat="44.86577" lon="5.68343">
        <ele>640.797</ele>
        <time>2013-08-31T10:53:17Z</time>
      </trkpt>
      <trkpt lat="44.8658" lon="5.68332">
        <ele>639.826</ele>
        <time>2013-08-31T10:53:20Z</time>
      </trkpt>
      <trkpt lat="44.86608" lon="5.68318">
        <ele>638.76</ele>
        <time>2013-08-31T10:53:30Z</time>
      </trkpt>
      <trkpt lat="44.86634" lon="5.68288">
        <ele>638.199</ele>
        <time>2013-08-31T10:53:40Z</time>
      </trkpt>
      <trkpt lat="44.86643" lon="5.68282">
        <ele>639.415</ele>
        <time>2013-08-31T10:53:44Z</time>
      </trkpt>
      <trkpt lat="44.86657" lon="5.68254">
        <ele>638.987</ele>
        <time>2013-08-31T10:53:53Z</time>
      </trkpt>
      <trkpt lat="44.8666" lon="5.68244">
        <ele>640.025</ele>
        <time>2013-08-31T10:53:55Z</time>
      </trkpt>
      <trkpt lat="44.86663" lon="5.68239">
        <ele>641.369</ele>
        <time>2013-08-31T10:53:57Z</time>
      </trkpt>
      <trkpt lat="44.86666" lon="5.68236">
        <ele>642.5</ele>
        <time>2013-08-31T10:54:01Z</time>
      </trkpt>
      <trkpt lat="44.86675" lon="5.68225">
        <ele>641.918</ele>
        <time>2013-08-31T10:54:06Z</time>
      </trkpt>
      <trkpt lat="44.86677" lon="5.68214">
        <ele>640.583</ele>
        <time>2013-08-31T10:54:08Z</time>
      </trkpt>
      <trkpt lat="44.86687" lon="5.68177">
        <ele>637.591</ele>
        <time>2013-08-31T10:54:18Z</time>
      </trkpt>
      <trkpt lat="44.86688" lon="5.68173">
        <ele>636.095</ele>
        <time>2013-08-31T10:54:19Z</time>
      </trkpt>
      <trkpt lat="44.86696" lon="5.6814">
        <ele>634.439</ele>
        <time>2013-08-31T10:54:29Z</time>
      </trkpt>
      <trkpt lat="44.86698" lon="5.68136">
        <ele>633.893</ele>
        <time>2013-08-31T10:54:31Z</time>
      </trkpt>
      <trkpt lat="44.86709" lon="5.68122">
        <ele>630.628</ele>
        <time>2013-08-31T10:54:39Z</time>
      </trkpt>
      <trkpt lat="44.86714" lon="5.68116">
        <ele>629.589</ele>
        <time>2013-08-31T10:54:41Z</time>
      </trkpt>
      <trkpt lat="44.86717" lon="5.68108">
        <ele>628.174</ele>
        <time>2013-08-31T10:54:43Z</time>
      </trkpt>
      <trkpt lat="44.8672" lon="5.68095">
        <ele>625.126</ele>
        <time>2013-08-31T10:54:47Z</time>
      </trkpt>
      <trkpt lat="44.86721" lon="5.6809">
        <ele>625.128</ele>
        <time>2013-08-31T10:54:48Z</time>
      </trkpt>
      <trkpt lat="44.86725" lon="5.68082">
        <ele>623.322</ele>
        <time>2013-08-31T10:54:50Z</time>
      </trkpt>
      <trkpt lat="44.86727" lon="5.68063">
        <ele>619.947</ele>
        <time>2013-08-31T10:54:56Z</time>
      </trkpt>
      <trkpt lat="44.86731" lon="5.68053">
        <ele>618.235</ele>
        <time>2013-08-31T10:54:59Z</time>
      </trkpt>
      <trkpt lat="44.86742" lon="5.68037">
        <ele>617.249</ele>
        <time>2013-08-31T10:55:04Z</time>
      </trkpt>
      <trkpt lat="44.86754" lon="5.6801">
        <ele>616.768</ele>
        <time>2013-08-31T10:55:13Z</time>
      </trkpt>
      <trkpt lat="44.86755" lon="5.68007">
        <ele>616.948</ele>
        <time>2013-08-31T10:55:14Z</time>
      </trkpt>
      <trkpt lat="44.86777" lon="5.67974">
        <ele>616.225</ele>
        <time>2013-08-31T10:55:25Z</time>
      </trkpt>
      <trkpt lat="44.86794" lon="5.67941">
        <ele>615.148</ele>
        <time>2013-08-31T10:55:34Z</time>
      </trkpt>
      <trkpt lat="44.86807" lon="5.67911">
        <ele>613.157</ele>
        <time>2013-08-31T10:55:41Z</time>
      </trkpt>
      <trkpt lat="44.86813" lon="5.67897">
        <ele>612.057</ele>
        <time>2013-08-31T10:55:43Z</time>
      </trkpt>
      <trkpt lat="44.86829" lon="5.67869">
        <ele>610.17</ele>
        <time>2013-08-31T10:55:48Z</time>
      </trkpt>
      <trkpt lat="44.86843" lon="5.67844">
        <ele>608.676</ele>
        <time>2013-08-31T10:55:53Z</time>
      </trkpt>
      <trkpt lat="44.86848" lon="5.67831">
        <ele>607.502</ele>
        <time>2013-08-31T10:55:55Z</time>
      </trkpt>
      <trkpt lat="44.86853" lon="5.67817">
        <ele>606.085</ele>
        <time>2013-08-31T10:55:57Z</time>
      </trkpt>
      <trkpt lat="44.86872" lon="5.67777">
        <ele>603.126</ele>
        <time>2013-08-31T10:56:06Z</time>
      </trkpt>
      <trkpt lat="44.86876" lon="5.67765">
        <ele>601.577</ele>
        <time>2013-08-31T10:56:09Z</time>
      </trkpt>
      <trkpt lat="44.86882" lon="5.6775">
        <ele>600.403</ele>
        <time>2013-08-31T10:56:12Z</time>
      </trkpt>
      <trkpt lat="44.8689" lon="5.67734">
        <ele>597.064</ele>
        <time>2013-08-31T10:56:15Z</time>
      </trkpt>
      <trkpt lat="44.86899" lon="5.67712">
        <ele>595.595</ele>
        <time>2013-08-31T10:56:18Z</time>
      </trkpt>
      <trkpt lat="44.86905" lon="5.677">
        <ele>595.397</ele>
        <time>2013-08-31T10:56:20Z</time>
      </trkpt>
      <trkpt lat="44.86922" lon="5.67676">
        <ele>594.15</ele>
        <time>2013-08-31T10:56:24Z</time>
      </trkpt>
      <trkpt lat="44.86953" lon="5.67621">
        <ele>595.261</ele>
        <time>2013-08-31T10:56:36Z</time>
      </trkpt>
      <trkpt lat="44.86957" lon="5.67615">
        <ele>595.165</ele>
        <time>2013-08-31T10:56:38Z</time>
      </trkpt>
      <trkpt lat="44.86961" lon="5.67584">
        <ele>593.186</ele>
        <time>2013-08-31T10:56:46Z</time>
      </trkpt>
      <trkpt lat="44.86958" lon="5.67556">
        <ele>594.032</ele>
        <time>2013-08-31T10:56:54Z</time>
      </trkpt>
      <trkpt lat="44.8696" lon="5.67539">
        <ele>593.433</ele>
        <time>2013-08-31T10:56:58Z</time>
      </trkpt>
      <trkpt lat="44.86973" lon="5.67504">
        <ele>590.506</ele>
        <time>2013-08-31T10:57:06Z</time>
      </trkpt>
      <trkpt lat="44.86979" lon="5.67494">
        <ele>588.497</ele>
        <time>2013-08-31T10:57:09Z</time>
      </trkpt>
      <trkpt lat="44.8698" lon="5.67487">
        <ele>587.129</ele>
        <time>2013-08-31T10:57:11Z</time>
      </trkpt>
      <trkpt lat="44.86983" lon="5.67475">
        <ele>585.096</ele>
        <time>2013-08-31T10:57:13Z</time>
      </trkpt>
      <trkpt lat="44.86985" lon="5.67469">
        <ele>584.369</ele>
        <time>2013-08-31T10:57:14Z</time>
      </trkpt>
      <trkpt lat="44.87008" lon="5.67418">
        <ele>582.169</ele>
        <time>2013-08-31T10:57:23Z</time>
      </trkpt>
      <trkpt lat="44.87022" lon="5.67406">
        <ele>583.212</ele>
        <time>2013-08-31T10:57:27Z</time>
      </trkpt>
      <trkpt lat="44.87025" lon="5.67409">
        <ele>583.052</ele>
        <time>2013-08-31T10:57:28Z</time>
      </trkpt>
      <trkpt lat="44.87033" lon="5.67413">
        <ele>581.301</ele>
        <time>2013-08-31T10:57:30Z</time>
      </trkpt>
      <trkpt lat="44.87046" lon="5.67421">
        <ele>579.152</ele>
        <time>2013-08-31T10:57:35Z</time>
      </trkpt>
      <trkpt lat="44.87042" lon="5.67432">
        <ele>577.736</ele>
        <time>2013-08-31T10:57:39Z</time>
      </trkpt>
      <trkpt lat="44.87039" lon="5.6744">
        <ele>576.16</ele>
        <time>2013-08-31T10:57:41Z</time>
      </trkpt>
      <trkpt lat="44.87037" lon="5.67443">
        <ele>575.36</ele>
        <time>2013-08-31T10:57:42Z</time>
      </trkpt>
      <trkpt lat="44.87031" lon="5.6745">
        <ele>573.976</ele>
        <time>2013-08-31T10:57:44Z</time>
      </trkpt>
      <trkpt lat="44.87029" lon="5.67473">
        <ele>572.906</ele>
        <time>2013-08-31T10:57:50Z</time>
      </trkpt>
      <trkpt lat="44.87032" lon="5.67489">
        <ele>570.636</ele>
        <time>2013-08-31T10:57:53Z</time>
      </trkpt>
      <trkpt lat="44.87032" lon="5.67495">
        <ele>571.018</ele>
        <time>2013-08-31T10:57:55Z</time>
      </trkpt>
      <trkpt lat="44.87036" lon="5.67514">
        <ele>567.735</ele>
        <time>2013-08-31T10:58:00Z</time>
      </trkpt>
      <trkpt lat="44.87039" lon="5.67522">
        <ele>568.257</ele>
        <time>2013-08-31T10:58:13Z</time>
      </trkpt>
      <trkpt lat="44.8704" lon="5.67533">
        <ele>567.852</ele>
        <time>2013-08-31T10:58:16Z</time>
      </trkpt>
      <trkpt lat="44.87041" lon="5.67543">
        <ele>566.422</ele>
        <time>2013-08-31T10:58:18Z</time>
      </trkpt>
      <trkpt lat="44.8704" lon="5.67565">
        <ele>562.183</ele>
        <time>2013-08-31T10:58:26Z</time>
      </trkpt>
      <trkpt lat="44.8704" lon="5.6757">
        <ele>562.944</ele>
        <time>2013-08-31T10:58:28Z</time>
      </trkpt>
      <trkpt lat="44.87046" lon="5.67584">
        <ele>562.781</ele>
        <time>2013-08-31T10:58:33Z</time>
      </trkpt>
      <trkpt lat="44.87057" lon="5.67586">
        <ele>559.91</ele>
        <time>2013-08-31T10:58:37Z</time>
      </trkpt>
      <trkpt lat="44.87059" lon="5.67587">
        <ele>559.62</ele>
        <time>2013-08-31T10:58:38Z</time>
      </trkpt>
      <trkpt lat="44.87067" lon="5.67599">
        <ele>558.532</ele>
        <time>2013-08-31T10:58:43Z</time>
      </trkpt>
      <trkpt lat="44.8708" lon="5.67611">
        <ele>556.465</ele>
        <time>2013-08-31T10:58:48Z</time>
      </trkpt>
      <trkpt lat="44.87081" lon="5.67622">
        <ele>555.469</ele>
        <time>2013-08-31T10:58:51Z</time>
      </trkpt>
      <trkpt lat="44.87082" lon="5.67628">
        <ele>555.093</ele>
        <time>2013-08-31T10:58:53Z</time>
      </trkpt>
      <trkpt lat="44.87084" lon="5.67638">
        <ele>552.803</ele>
        <time>2013-08-31T10:59:08Z</time>
      </trkpt>
      <trkpt lat="44.87085" lon="5.67642">
        <ele>552.28</ele>
        <time>2013-08-31T10:59:13Z</time>
      </trkpt>
      <trkpt lat="44.87087" lon="5.67641">
        <ele>551.991</ele>
        <time>2013-08-31T10:59:15Z</time>
      </trkpt>
      <trkpt lat="44.8709" lon="5.67639">
        <ele>550.773</ele>
        <time>2013-08-31T10:59:19Z</time>
      </trkpt>
      <trkpt lat="44.8709" lon="5.67643">
        <ele>549.406</ele>
        <time>2013-08-31T10:59:23Z</time>
      </trkpt>
      <trkpt lat="44.8709" lon="5.67647">
        <ele>548.163</ele>
        <time>2013-08-31T10:59:26Z</time>
      </trkpt>
      <trkpt lat="44.87097" lon="5.67646">
        <ele>546.47</ele>
        <time>2013-08-31T10:59:33Z</time>
      </trkpt>
      <trkpt lat="44.87085" lon="5.67655">
        <ele>543.714</ele>
        <time>2013-08-31T10:59:46Z</time>
      </trkpt>
      <trkpt lat="44.87102" lon="5.67653">
        <ele>540.956</ele>
        <time>2013-08-31T10:59:56Z</time>
      </trkpt>
      <trkpt lat="44.87117" lon="5.67644">
        <ele>537.865</ele>
        <time>2013-08-31T11:00:06Z</time>
      </trkpt>
      <trkpt lat="44.87129" lon="5.67646">
        <ele>536.104</ele>
        <time>2013-08-31T11:00:16Z</time>
      </trkpt>
      <trkpt lat="44.87138" lon="5.6765">
        <ele>533.793</ele>
        <time>2013-08-31T11:00:19Z</time>
      </trkpt>
      <trkpt lat="44.87161" lon="5.6766">
        <ele>530.535</ele>
        <time>2013-08-31T11:00:25Z</time>
      </trkpt>
      <trkpt lat="44.87164" lon="5.67662">
        <ele>530.532</ele>
        <time>2013-08-31T11:00:26Z</time>
      </trkpt>
      <trkpt lat="44.87219" lon="5.67689">
        <ele>529.803</ele>
        <time>2013-08-31T11:00:43Z</time>
      </trkpt>
      <trkpt lat="44.87244" lon="5.677">
        <ele>533.514</ele>
        <time>2013-08-31T11:01:02Z</time>
      </trkpt>
      <trkpt lat="44.87267" lon="5.6771">
        <ele>536.8</ele>
        <time>2013-08-31T11:01:22Z</time>
      </trkpt>
      <trkpt lat="44.87279" lon="5.67717">
        <ele>538.546</ele>
        <time>2013-08-31T11:01:38Z</time>
      </trkpt>
      <trkpt lat="44.87289" lon="5.67726">
        <ele>539.783</ele>
        <time>2013-08-31T11:01:51Z</time>
      </trkpt>
      <trkpt lat="44.87291" lon="5.67727">
        <ele>541.05</ele>
        <time>2013-08-31T11:02:03Z</time>
      </trkpt>
      <trkpt lat="44.87294" lon="5.67728">
        <ele>540.99</ele>
        <time>2013-08-31T11:02:11Z</time>
      </trkpt>
      <trkpt lat="44.87298" lon="5.67718">
        <ele>541.716</ele>
        <time>2013-08-31T11:02:16Z</time>
      </trkpt>
      <trkpt lat="44.87293" lon="5.67702">
        <ele>543.7</ele>
        <time>2013-08-31T11:02:24Z</time>
      </trkpt>
      <trkpt lat="44.87292" lon="5.67699">
        <ele>543.989</ele>
        <time>2013-08-31T11:02:26Z</time>
      </trkpt>
      <trkpt lat="44.8729" lon="5.67692">
        <ele>545.259</ele>
        <time>2013-08-31T11:02:30Z</time>
      </trkpt>
      <trkpt lat="44.87286" lon="5.67666">
        <ele>548.096</ele>
        <time>2013-08-31T11:02:45Z</time>
      </trkpt>
      <trkpt lat="44.87288" lon="5.67662">
        <ele>549.144</ele>
        <time>2013-08-31T11:02:48Z</time>
      </trkpt>
      <trkpt lat="44.87301" lon="5.67658">
        <ele>551.738</ele>
        <time>2013-08-31T11:03:04Z</time>
      </trkpt>
      <trkpt lat="44.87313" lon="5.67654">
        <ele>554.758</ele>
        <time>2013-08-31T11:03:23Z</time>
      </trkpt>
      <trkpt lat="44.87323" lon="5.6765">
        <ele>558.54</ele>
        <time>2013-08-31T11:03:37Z</time>
      </trkpt>
      <trkpt lat="44.87326" lon="5.6765">
        <ele>558.018</ele>
        <time>2013-08-31T11:03:50Z</time>
      </trkpt>
      <trkpt lat="44.87337" lon="5.67657">
        <ele>559.089</ele>
        <time>2013-08-31T11:04:01Z</time>
      </trkpt>
      <trkpt lat="44.87364" lon="5.67664">
        <ele>558.972</ele>
        <time>2013-08-31T11:04:16Z</time>
      </trkpt>
      <trkpt lat="44.87389" lon="5.67672">
        <ele>559.54</ele>
        <time>2013-08-31T11:04:26Z</time>
      </trkpt>
      <trkpt lat="44.87427" lon="5.67689">
        <ele>560.726</ele>
        <time>2013-08-31T11:04:40Z</time>
      </trkpt>
      <trkpt lat="44.87461" lon="5.67698">
        <ele>561.094</ele>
        <time>2013-08-31T11:04:51Z</time>
      </trkpt>
      <trkpt lat="44.87494" lon="5.67692">
        <ele>562.199</ele>
        <time>2013-08-31T11:05:02Z</time>
      </trkpt>
      <trkpt lat="44.8753" lon="5.67691">
        <ele>561.85</ele>
        <time>2013-08-31T11:05:13Z</time>
      </trkpt>
      <trkpt lat="44.8757" lon="5.67703">
        <ele>562.629</ele>
        <time>2013-08-31T11:05:25Z</time>
      </trkpt>
      <trkpt lat="44.87593" lon="5.6771">
        <ele>560.37</ele>
        <time>2013-08-31T11:05:31Z</time>
      </trkpt>
      <trkpt lat="44.87615" lon="5.67715">
        <ele>559.424</ele>
        <time>2013-08-31T11:05:35Z</time>
      </trkpt>
      <trkpt lat="44.87653" lon="5.67718">
        <ele>558.602</ele>
        <time>2013-08-31T11:05:42Z</time>
      </trkpt>
      <trkpt lat="44.87701" lon="5.67717">
        <ele>558.602</ele>
        <time>2013-08-31T11:05:52Z</time>
      </trkpt>
      <trkpt lat="44.87727" lon="5.67713">
        <ele>558.47</ele>
        <time>2013-08-31T11:05:58Z</time>
      </trkpt>
      <trkpt lat="44.87775" lon="5.67704">
        <ele>558.505</ele>
        <time>2013-08-31T11:06:10Z</time>
      </trkpt>
      <trkpt lat="44.87806" lon="5.677">
        <ele>557.736</ele>
        <time>2013-08-31T11:06:19Z</time>
      </trkpt>
      <trkpt lat="44.87841" lon="5.67695">
        <ele>558.65</ele>
        <time>2013-08-31T11:06:29Z</time>
      </trkpt>
      <trkpt lat="44.87884" lon="5.6769">
        <ele>560.109</ele>
        <time>2013-08-31T11:06:41Z</time>
      </trkpt>
      <trkpt lat="44.87898" lon="5.67688">
        <ele>558.959</ele>
        <time>2013-08-31T11:06:44Z</time>
      </trkpt>
      <trkpt lat="44.87943" lon="5.67675">
        <ele>557.421</ele>
        <time>2013-08-31T11:06:53Z</time>
      </trkpt>
      <trkpt lat="44.87987" lon="5.67654">
        <ele>559.387</ele>
        <time>2013-08-31T11:07:05Z</time>
      </trkpt>
      <trkpt lat="44.88014" lon="5.67629">
        <ele>563.084</ele>
        <time>2013-08-31T11:07:17Z</time>
      </trkpt>
      <trkpt lat="44.88016" lon="5.67627">
        <ele>563.084</ele>
        <time>2013-08-31T11:07:18Z</time>
      </trkpt>
      <trkpt lat="44.88017" lon="5.67625">
        <ele>563.306</ele>
        <time>2013-08-31T11:07:19Z</time>
      </trkpt>
      <trkpt lat="44.88032" lon="5.67617">
        <ele>562.251</ele>
        <time>2013-08-31T11:07:25Z</time>
      </trkpt>
      <trkpt lat="44.88057" lon="5.67604">
        <ele>559.474</ele>
        <time>2013-08-31T11:07:31Z</time>
      </trkpt>
      <trkpt lat="44.88125" lon="5.67571">
        <ele>558.996</ele>
        <time>2013-08-31T11:07:46Z</time>
      </trkpt>
      <trkpt lat="44.88144" lon="5.67566">
        <ele>555.955</ele>
        <time>2013-08-31T11:07:56Z</time>
      </trkpt>
      <trkpt lat="44.88157" lon="5.67563">
        <ele>554.269</ele>
        <time>2013-08-31T11:08:00Z</time>
      </trkpt>
      <trkpt lat="44.88166" lon="5.67563">
        <ele>553.577</ele>
        <time>2013-08-31T11:08:02Z</time>
      </trkpt>
      <trkpt lat="44.88189" lon="5.67563">
        <ele>550.71</ele>
        <time>2013-08-31T11:08:06Z</time>
      </trkpt>
      <trkpt lat="44.88203" lon="5.67563">
        <ele>547.082</ele>
        <time>2013-08-31T11:08:08Z</time>
      </trkpt>
      <trkpt lat="44.88211" lon="5.67562">
        <ele>547.082</ele>
        <time>2013-08-31T11:08:09Z</time>
      </trkpt>
      <trkpt lat="44.88225" lon="5.67562">
        <ele>545.679</ele>
        <time>2013-08-31T11:08:11Z</time>
      </trkpt>
      <trkpt lat="44.88242" lon="5.67561">
        <ele>543.853</ele>
        <time>2013-08-31T11:08:13Z</time>
      </trkpt>
      <trkpt lat="44.88249" lon="5.6756">
        <ele>542.968</ele>
        <time>2013-08-31T11:08:14Z</time>
      </trkpt>
      <trkpt lat="44.88262" lon="5.67557">
        <ele>542.017</ele>
        <time>2013-08-31T11:08:16Z</time>
      </trkpt>
      <trkpt lat="44.88293" lon="5.67554">
        <ele>539.076</ele>
        <time>2013-08-31T11:08:20Z</time>
      </trkpt>
      <trkpt lat="44.88307" lon="5.67549">
        <ele>536.983</ele>
        <time>2013-08-31T11:08:22Z</time>
      </trkpt>
      <trkpt lat="44.88352" lon="5.67505">
        <ele>536.713</ele>
        <time>2013-08-31T11:08:30Z</time>
      </trkpt>
      <trkpt lat="44.88364" lon="5.67495">
        <ele>536.729</ele>
        <time>2013-08-31T11:08:32Z</time>
      </trkpt>
      <trkpt lat="44.88388" lon="5.67481">
        <ele>535.728</ele>
        <time>2013-08-31T11:08:36Z</time>
      </trkpt>
      <trkpt lat="44.88406" lon="5.67478">
        <ele>533.181</ele>
        <time>2013-08-31T11:08:39Z</time>
      </trkpt>
      <trkpt lat="44.88462" lon="5.67465">
        <ele>533.351</ele>
        <time>2013-08-31T11:08:48Z</time>
      </trkpt>
      <trkpt lat="44.88501" lon="5.67454">
        <ele>533.156</ele>
        <time>2013-08-31T11:08:54Z</time>
      </trkpt>
      <trkpt lat="44.88513" lon="5.67449">
        <ele>532.981</ele>
        <time>2013-08-31T11:08:56Z</time>
      </trkpt>
      <trkpt lat="44.88533" lon="5.67429">
        <ele>532.881</ele>
        <time>2013-08-31T11:09:00Z</time>
      </trkpt>
      <trkpt lat="44.88583" lon="5.67418">
        <ele>531.322</ele>
        <time>2013-08-31T11:09:10Z</time>
      </trkpt>
      <trkpt lat="44.88668" lon="5.67407">
        <ele>531.194</ele>
        <time>2013-08-31T11:09:27Z</time>
      </trkpt>
      <trkpt lat="44.88679" lon="5.67405">
        <ele>529.866</ele>
        <time>2013-08-31T11:09:29Z</time>
      </trkpt>
      <trkpt lat="44.88689" lon="5.67402">
        <ele>529.684</ele>
        <time>2013-08-31T11:09:31Z</time>
      </trkpt>
      <trkpt lat="44.88754" lon="5.67377">
        <ele>530.175</ele>
        <time>2013-08-31T11:09:46Z</time>
      </trkpt>
      <trkpt lat="44.88784" lon="5.6737">
        <ele>531.016</ele>
        <time>2013-08-31T11:09:53Z</time>
      </trkpt>
      <trkpt lat="44.8887" lon="5.6735">
        <ele>529.723</ele>
        <time>2013-08-31T11:10:12Z</time>
      </trkpt>
      <trkpt lat="44.88894" lon="5.67347">
        <ele>529.33</ele>
        <time>2013-08-31T11:10:18Z</time>
      </trkpt>
      <trkpt lat="44.88911" lon="5.67333">
        <ele>528.378</ele>
        <time>2013-08-31T11:10:23Z</time>
      </trkpt>
      <trkpt lat="44.88944" lon="5.67327">
        <ele>529.183</ele>
        <time>2013-08-31T11:10:33Z</time>
      </trkpt>
      <trkpt lat="44.88974" lon="5.67325">
        <ele>530.363</ele>
        <time>2013-08-31T11:10:42Z</time>
      </trkpt>
      <trkpt lat="44.8903" lon="5.67322">
        <ele>530.543</ele>
        <time>2013-08-31T11:10:57Z</time>
      </trkpt>
      <trkpt lat="44.89094" lon="5.67317">
        <ele>532.981</ele>
        <time>2013-08-31T11:11:16Z</time>
      </trkpt>
      <trkpt lat="44.89139" lon="5.67309">
        <ele>535.747</ele>
        <time>2013-08-31T11:11:35Z</time>
      </trkpt>
      <trkpt lat="44.89173" lon="5.67298">
        <ele>538.437</ele>
        <time>2013-08-31T11:11:52Z</time>
      </trkpt>
      <trkpt lat="44.89228" lon="5.67287">
        <ele>538.697</ele>
        <time>2013-08-31T11:12:08Z</time>
      </trkpt>
      <trkpt lat="44.89293" lon="5.67296">
        <ele>538.952</ele>
        <time>2013-08-31T11:12:23Z</time>
      </trkpt>
      <trkpt lat="44.89343" lon="5.67286">
        <ele>537.595</ele>
        <time>2013-08-31T11:12:35Z</time>
      </trkpt>
      <trkpt lat="44.89416" lon="5.67265">
        <ele>538.009</ele>
        <time>2013-08-31T11:12:56Z</time>
      </trkpt>
      <trkpt lat="44.89468" lon="5.67251">
        <ele>534.939</ele>
        <time>2013-08-31T11:13:09Z</time>
      </trkpt>
      <trkpt lat="44.89511" lon="5.67235">
        <ele>535.589</ele>
        <time>2013-08-31T11:13:23Z</time>
      </trkpt>
      <trkpt lat="44.89515" lon="5.67237">
        <ele>535.174</ele>
        <time>2013-08-31T11:13:25Z</time>
      </trkpt>
      <trkpt lat="44.8955" lon="5.67222">
        <ele>535.634</ele>
        <time>2013-08-31T11:13:37Z</time>
      </trkpt>
      <trkpt lat="44.89582" lon="5.67201">
        <ele>535.084</ele>
        <time>2013-08-31T11:13:48Z</time>
      </trkpt>
      <trkpt lat="44.89609" lon="5.6722">
        <ele>532.843</ele>
        <time>2013-08-31T11:13:56Z</time>
      </trkpt>
      <trkpt lat="44.89613" lon="5.67223">
        <ele>532.006</ele>
        <time>2013-08-31T11:13:57Z</time>
      </trkpt>
      <trkpt lat="44.8963" lon="5.67229">
        <ele>528.301</ele>
        <time>2013-08-31T11:14:00Z</time>
      </trkpt>
      <trkpt lat="44.89655" lon="5.67217">
        <ele>529.258</ele>
        <time>2013-08-31T11:14:05Z</time>
      </trkpt>
      <trkpt lat="44.89704" lon="5.67195">
        <ele>530.402</ele>
        <time>2013-08-31T11:14:17Z</time>
      </trkpt>
      <trkpt lat="44.89777" lon="5.67164">
        <ele>533.43</ele>
        <time>2013-08-31T11:14:36Z</time>
      </trkpt>
      <trkpt lat="44.89839" lon="5.67136">
        <ele>534.31</ele>
        <time>2013-08-31T11:14:53Z</time>
      </trkpt>
      <trkpt lat="44.89898" lon="5.67103">
        <ele>535.663</ele>
        <time>2013-08-31T11:15:10Z</time>
      </trkpt>
      <trkpt lat="44.89952" lon="5.67078">
        <ele>536.635</ele>
        <time>2013-08-31T11:15:25Z</time>
      </trkpt>
      <trkpt lat="44.89994" lon="5.67058">
        <ele>537.309</ele>
        <time>2013-08-31T11:15:37Z</time>
      </trkpt>
      <trkpt lat="44.90022" lon="5.67051">
        <ele>536.957</ele>
        <time>2013-08-31T11:15:45Z</time>
      </trkpt>
      <trkpt lat="44.90022" lon="5.6707">
        <ele>536.075</ele>
        <time>2013-08-31T11:15:50Z</time>
      </trkpt>
      <trkpt lat="44.90015" lon="5.67086">
        <ele>534.64</ele>
        <time>2013-08-31T11:15:52Z</time>
      </trkpt>
      <trkpt lat="44.90014" lon="5.67107">
        <ele>532.487</ele>
        <time>2013-08-31T11:15:54Z</time>
      </trkpt>
      <trkpt lat="44.90016" lon="5.67118">
        <ele>529.252</ele>
        <time>2013-08-31T11:15:55Z</time>
      </trkpt>
      <trkpt lat="44.90019" lon="5.6713">
        <ele>529.252</ele>
        <time>2013-08-31T11:15:56Z</time>
      </trkpt>
      <trkpt lat="44.90024" lon="5.67149">
        <ele>525.529</ele>
        <time>2013-08-31T11:15:58Z</time>
      </trkpt>
      <trkpt lat="44.90028" lon="5.67164">
        <ele>524.935</ele>
        <time>2013-08-31T11:16:00Z</time>
      </trkpt>
      <trkpt lat="44.90041" lon="5.67174">
        <ele>523.532</ele>
        <time>2013-08-31T11:16:03Z</time>
      </trkpt>
      <trkpt lat="44.90048" lon="5.67173">
        <ele>520.525</ele>
        <time>2013-08-31T11:16:04Z</time>
      </trkpt>
      <trkpt lat="44.90062" lon="5.6717">
        <ele>519.758</ele>
        <time>2013-08-31T11:16:06Z</time>
      </trkpt>
      <trkpt lat="44.90073" lon="5.67165">
        <ele>521.526</ele>
        <time>2013-08-31T11:16:08Z</time>
      </trkpt>
      <trkpt lat="44.90096" lon="5.67155">
        <ele>522.041</ele>
        <time>2013-08-31T11:16:13Z</time>
      </trkpt>
      <trkpt lat="44.90111" lon="5.67144">
        <ele>522.113</ele>
        <time>2013-08-31T11:16:17Z</time>
      </trkpt>
      <trkpt lat="44.90137" lon="5.67126">
        <ele>521.954</ele>
        <time>2013-08-31T11:16:24Z</time>
      </trkpt>
      <trkpt lat="44.90166" lon="5.67121">
        <ele>522.113</ele>
        <time>2013-08-31T11:16:30Z</time>
      </trkpt>
      <trkpt lat="44.90185" lon="5.67123">
        <ele>522.427</ele>
        <time>2013-08-31T11:16:34Z</time>
      </trkpt>
      <trkpt lat="44.90206" lon="5.67121">
        <ele>522.694</ele>
        <time>2013-08-31T11:16:40Z</time>
      </trkpt>
      <trkpt lat="44.90214" lon="5.67138">
        <ele>520.356</ele>
        <time>2013-08-31T11:16:45Z</time>
      </trkpt>
      <trkpt lat="44.9022" lon="5.67158">
        <ele>516.699</ele>
        <time>2013-08-31T11:16:49Z</time>
      </trkpt>
      <trkpt lat="44.90222" lon="5.67163">
        <ele>516.699</ele>
        <time>2013-08-31T11:16:50Z</time>
      </trkpt>
      <trkpt lat="44.90225" lon="5.67175">
        <ele>515.018</ele>
        <time>2013-08-31T11:16:52Z</time>
      </trkpt>
      <trkpt lat="44.90226" lon="5.67181">
        <ele>512.392</ele>
        <time>2013-08-31T11:16:53Z</time>
      </trkpt>
      <trkpt lat="44.90229" lon="5.672">
        <ele>508.254</ele>
        <time>2013-08-31T11:16:56Z</time>
      </trkpt>
      <trkpt lat="44.90228" lon="5.67206">
        <ele>508.254</ele>
        <time>2013-08-31T11:16:57Z</time>
      </trkpt>
      <trkpt lat="44.90217" lon="5.67238">
        <ele>504.224</ele>
        <time>2013-08-31T11:17:03Z</time>
      </trkpt>
      <trkpt lat="44.90216" lon="5.67243">
        <ele>504.224</ele>
        <time>2013-08-31T11:17:04Z</time>
      </trkpt>
      <trkpt lat="44.9021" lon="5.67256">
        <ele>502.237</ele>
        <time>2013-08-31T11:17:07Z</time>
      </trkpt>
      <trkpt lat="44.90207" lon="5.67277">
        <ele>500.253</ele>
        <time>2013-08-31T11:17:11Z</time>
      </trkpt>
      <trkpt lat="44.90216" lon="5.67293">
        <ele>497.013</ele>
        <time>2013-08-31T11:17:15Z</time>
      </trkpt>
      <trkpt lat="44.90227" lon="5.67291">
        <ele>495.283</ele>
        <time>2013-08-31T11:17:17Z</time>
      </trkpt>
      <trkpt lat="44.90316" lon="5.67256">
        <ele>495.024</ele>
        <time>2013-08-31T11:17:37Z</time>
      </trkpt>
      <trkpt lat="44.90321" lon="5.67255">
        <ele>495.024</ele>
        <time>2013-08-31T11:17:38Z</time>
      </trkpt>
      <trkpt lat="44.90331" lon="5.67238">
        <ele>496.871</ele>
        <time>2013-08-31T11:17:42Z</time>
      </trkpt>
      <trkpt lat="44.90341" lon="5.6721">
        <ele>497.434</ele>
        <time>2013-08-31T11:17:48Z</time>
      </trkpt>
      <trkpt lat="44.9036" lon="5.67193">
        <ele>498.205</ele>
        <time>2013-08-31T11:17:54Z</time>
      </trkpt>
      <trkpt lat="44.904" lon="5.67209">
        <ele>496.548</ele>
        <time>2013-08-31T11:18:07Z</time>
      </trkpt>
      <trkpt lat="44.90407" lon="5.67213">
        <ele>496.345</ele>
        <time>2013-08-31T11:18:09Z</time>
      </trkpt>
      <trkpt lat="44.90452" lon="5.67209">
        <ele>494.178</ele>
        <time>2013-08-31T11:18:20Z</time>
      </trkpt>
      <trkpt lat="44.90481" lon="5.67205">
        <ele>493.962</ele>
        <time>2013-08-31T11:18:29Z</time>
      </trkpt>
      <trkpt lat="44.90495" lon="5.67209">
        <ele>493.573</ele>
        <time>2013-08-31T11:18:41Z</time>
      </trkpt>
      <trkpt lat="44.90496" lon="5.6721">
        <ele>493.372</ele>
        <time>2013-08-31T11:19:12Z</time>
      </trkpt>
      <trkpt lat="44.90497" lon="5.67211">
        <ele>493.605</ele>
        <time>2013-08-31T11:20:03Z</time>
      </trkpt>
    </trkseg>
  </trk>
</gpx>